Observation data for Colorado City on 07/04/2020      Previous  Date  Next       Current Mesonet Observations  Soil Data  Daily Summary Page  Observations in Plain Language
KCO2 040500Z 09005KT 25/11 A3003 RMK A01 T02510107  RH  040%=      5-min Rain = 0
KCO2 040501Z 09005KT 25/11 A3003 RMK A01 T02510107  RH  040%=      5-min Rain = 0
KCO2 040502Z 09005KT 25/11 A3003 RMK A01 T02510108  RH  041%=      5-min Rain = 0
KCO2 040503Z 09005KT 25/11 A3003 RMK A01 T02510108  RH  041%=      5-min Rain = 0
KCO2 040504Z 09006KT 25/11 A3003 RMK A01 T02500108  RH  041%=      5-min Rain = 0
KCO2 040505Z 10006KT 25/11 A3003 RMK A01 T02490108  RH  041%=      5-min Rain = 0
KCO2 040506Z 10006KT 25/11 A3003 RMK A01 T02490108  RH  041%=      5-min Rain = 0
KCO2 040507Z 10006KT 25/11 A3003 RMK A01 T02480108  RH  041%=      5-min Rain = 0
KCO2 040508Z 10006KT 25/11 A3003 RMK A01 T02470107  RH  041%=      5-min Rain = 0
KCO2 040509Z 10005KT 25/11 A3003 RMK A01 T02470107  RH  041%=      5-min Rain = 0
KCO2 040510Z 10005KT 25/11 A3003 RMK A01 T02470106  RH  041%=      5-min Rain = 0
KCO2 040511Z 10005KT 25/11 A3003 RMK A01 T02470106  RH  041%=      5-min Rain = 0
KCO2 040512Z 10005KT 25/11 A3003 RMK A01 T02470106  RH  041%=      5-min Rain = 0
KCO2 040513Z 10005KT 25/11 A3003 RMK A01 T02470107  RH  041%=      5-min Rain = 0
KCO2 040514Z 10005KT 25/11 A3003 RMK A01 T02460106  RH  041%=      5-min Rain = 0
KCO2 040515Z 11005KT 25/11 A3003 RMK A01 T02460107  RH  042%=      5-min Rain = 0
KCO2 040516Z 11005KT 25/11 A3003 RMK A01 T02460107  RH  042%=      5-min Rain = 0
KCO2 040517Z 11005KT 25/11 A3003 RMK A01 T02450106  RH  042%=      5-min Rain = 0
KCO2 040518Z 11005KT 25/11 A3003 RMK A01 T02450107  RH  042%=      5-min Rain = 0
KCO2 040519Z 11005KT 25/11 A3002 RMK A01 T02450107  RH  042%=      5-min Rain = 0
KCO2 040520Z 11005KT 25/11 A3002 RMK A01 T02450106  RH  042%=      5-min Rain = 0
KCO2 040521Z 12005KT 25/11 A3002 RMK A01 T02460106  RH  041%=      5-min Rain = 0
KCO2 040522Z 12005KT 25/11 A3002 RMK A01 T02470106  RH  041%=      5-min Rain = 0
KCO2 040523Z 12005KT 25/11 A3002 RMK A01 T02480106  RH  041%=      5-min Rain = 0
KCO2 040524Z 12006KT 25/11 A3002 RMK A01 T02470105  RH  041%=      5-min Rain = 0
KCO2 040525Z 12005KT 25/11 A3002 RMK A01 T02480106  RH  041%=      5-min Rain = 0
KCO2 040526Z 12005KT 25/11 A3002 RMK A01 T02480107  RH  041%=      5-min Rain = 0
KCO2 040527Z 12005KT 25/11 A3002 RMK A01 T02480106  RH  041%=      5-min Rain = 0
KCO2 040528Z 11005KT 25/11 A3002 RMK A01 T02480106  RH  041%=      5-min Rain = 0
KCO2 040529Z 11005KT 25/11 A3002 RMK A01 T02480106  RH  041%=      5-min Rain = 0
KCO2 040530Z 11006KT 25/11 A3002 RMK A01 T02480105  RH  041%=      5-min Rain = 0
KCO2 040531Z 12005KT 25/11 A3002 RMK A01 T02480107  RH  041%=      5-min Rain = 0
KCO2 040532Z 11005KT 25/11 A3002 RMK A01 T02480108  RH  041%=      5-min Rain = 0
KCO2 040533Z 12005KT 25/11 A3002 RMK A01 T02470108  RH  042%=      5-min Rain = 0
KCO2 040534Z 12005KT 25/11 A3002 RMK A01 T02460107  RH  042%=      5-min Rain = 0
KCO2 040535Z 11005KT 25/11 A3002 RMK A01 T02450107  RH  042%=      5-min Rain = 0
KCO2 040536Z 11005KT 25/11 A3002 RMK A01 T02450107  RH  042%=      5-min Rain = 0
KCO2 040537Z 10005KT 24/11 A3002 RMK A01 T02440108  RH  042%=      5-min Rain = 0
KCO2 040538Z 10005KT 24/11 A3002 RMK A01 T02440108  RH  042%=      5-min Rain = 0
KCO2 040539Z 10005KT 25/11 A3002 RMK A01 T02450108  RH  042%=      5-min Rain = 0
KCO2 040540Z 10005KT 24/11 A3002 RMK A01 T02440108  RH  042%=      5-min Rain = 0
KCO2 040541Z 11005KT 24/11 A3002 RMK A01 T02430108  RH  043%=      5-min Rain = 0
KCO2 040542Z 11005KT 24/11 A3002 RMK A01 T02420107  RH  043%=      5-min Rain = 0
KCO2 040543Z 11005KT 24/11 A3002 RMK A01 T02420106  RH  042%=      5-min Rain = 0
KCO2 040544Z 11005KT 24/11 A3002 RMK A01 T02420106  RH  042%=      5-min Rain = 0
KCO2 040545Z 11006KT 24/11 A3002 RMK A01 T02420106  RH  042%=      5-min Rain = 0
KCO2 040546Z 11006KT 24/11 A3002 RMK A01 T02420107  RH  043%=      5-min Rain = 0
KCO2 040547Z 11006KT 24/11 A3002 RMK A01 T02420107  RH  043%=      5-min Rain = 0
KCO2 040548Z 12006KT 24/11 A3002 RMK A01 T02420107  RH  043%=      5-min Rain = 0
KCO2 040549Z 12006KT 24/11 A3001 RMK A01 T02410106  RH  043%=      5-min Rain = 0
KCO2 040550Z 12006KT 24/10 A3001 RMK A01 T02410104  RH  042%=      5-min Rain = 0
KCO2 040551Z 12006KT 24/10 A3001 RMK A01 T02420104  RH  042%=      5-min Rain = 0
KCO2 040552Z 12006KT 24/10 A3001 RMK A01 T02440103  RH  041%=      5-min Rain = 0
KCO2 040553Z 12006KT 24/10 A3001 RMK A01 T02440103  RH  041%=      5-min Rain = 0
KCO2 040554Z 12005KT 25/10 A3001 RMK A01 T02450103  RH  041%=      5-min Rain = 0
KCO2 040555Z 13005KT 25/10 A3001 RMK A01 T02450103  RH  041%=      5-min Rain = 0
KCO2 040556Z 13005KT 25/10 A3001 RMK A01 T02450104  RH  041%=      5-min Rain = 0
KCO2 040557Z 13005KT 24/10 A3001 RMK A01 T02440104  RH  041%=      5-min Rain = 0
KCO2 040558Z 13005KT 24/10 A3001 RMK A01 T02440103  RH  041%=      5-min Rain = 0
KCO2 040559Z 13005KT 24/10 A3001 RMK A01 T02430103  RH  041%=      5-min Rain = 0
KCO2 040600Z 13005KT 24/10 A3001 RMK A01 T02430103  RH  041%=      5-min Rain = 0
KCO2 040601Z 13005KT 24/10 A3001 RMK A01 T02430103  RH  041%=      5-min Rain = 0
KCO2 040602Z 13005KT 24/10 A3001 RMK A01 T02430103  RH  041%=      5-min Rain = 0
KCO2 040603Z 13005KT 24/10 A3001 RMK A01 T02440103  RH  041%=      5-min Rain = 0
KCO2 040604Z 13005KT 24/10 A3001 RMK A01 T02440103  RH  041%=      5-min Rain = 0
KCO2 040605Z 13005KT 24/10 A3001 RMK A01 T02440104  RH  041%=      5-min Rain = 0
KCO2 040606Z 13005KT 24/11 A3001 RMK A01 T02440105  RH  041%=      5-min Rain = 0
KCO2 040607Z 13006KT 24/10 A3001 RMK A01 T02440104  RH  041%=      5-min Rain = 0
KCO2 040608Z 12005KT 24/11 A3001 RMK A01 T02440105  RH  041%=      5-min Rain = 0
KCO2 040609Z 12006KT 25/11 A3001 RMK A01 T02450105  RH  041%=      5-min Rain = 0
KCO2 040610Z 12005KT 25/11 A3001 RMK A01 T02460106  RH  041%=      5-min Rain = 0
KCO2 040611Z 12005KT 25/11 A3001 RMK A01 T02460107  RH  041%=      5-min Rain = 0
KCO2 040612Z 12005KT 25/11 A3001 RMK A01 T02470108  RH  042%=      5-min Rain = 0
KCO2 040613Z 11005KT 25/11 A3001 RMK A01 T02470108  RH  042%=      5-min Rain = 0
KCO2 040614Z 11005KT 25/11 A3001 RMK A01 T02470109  RH  042%=      5-min Rain = 0
KCO2 040615Z 11005KT 25/11 A3001 RMK A01 T02480110  RH  042%=      5-min Rain = 0
KCO2 040616Z 11005KT 25/11 A3001 RMK A01 T02480110  RH  042%=      5-min Rain = 0
KCO2 040617Z 11004KT 25/11 A3001 RMK A01 T02470109  RH  042%=      5-min Rain = 0
KCO2 040618Z 11004KT 25/11 A3001 RMK A01 T02460109  RH  042%=      5-min Rain = 0
KCO2 040619Z 11004KT 25/11 A3001 RMK A01 T02450109  RH  042%=      5-min Rain = 0
KCO2 040620Z 11004KT 24/11 A3001 RMK A01 T02440109  RH  043%=      5-min Rain = 0
KCO2 040621Z 11004KT 24/11 A3001 RMK A01 T02430109  RH  043%=      5-min Rain = 0
KCO2 040622Z 11004KT 24/11 A3001 RMK A01 T02430108  RH  043%=      5-min Rain = 0
KCO2 040623Z 11004KT 24/11 A3001 RMK A01 T02430108  RH  043%=      5-min Rain = 0
KCO2 040624Z 11004KT 24/11 A3001 RMK A01 T02420108  RH  043%=      5-min Rain = 0
KCO2 040625Z 11004KT 24/11 A3001 RMK A01 T02410108  RH  043%=      5-min Rain = 0
KCO2 040626Z 11004KT 24/11 A3001 RMK A01 T02410109  RH  043%=      5-min Rain = 0
KCO2 040627Z 11004KT 24/11 A3001 RMK A01 T02410108  RH  043%=      5-min Rain = 0
KCO2 040628Z 11004KT 24/11 A3001 RMK A01 T02400108  RH  043%=      5-min Rain = 0
KCO2 040629Z 11004KT 24/11 A3001 RMK A01 T02400108  RH  043%=      5-min Rain = 0
KCO2 040630Z 11004KT 24/11 A3001 RMK A01 T02400107  RH  043%=      5-min Rain = 0
KCO2 040631Z 12004KT 24/11 A3001 RMK A01 T02410110  RH  044%=      5-min Rain = 0
KCO2 040632Z 12004KT 24/11 A3001 RMK A01 T02410110  RH  044%=      5-min Rain = 0
KCO2 040633Z 11004KT 24/11 A3001 RMK A01 T02410109  RH  043%=      5-min Rain = 0
KCO2 040634Z 11004KT 24/11 A3001 RMK A01 T02400110  RH  044%=      5-min Rain = 0
KCO2 040635Z 11004KT 24/11 A3001 RMK A01 T02380112  RH  045%=      5-min Rain = 0
KCO2 040636Z 11004KT 24/11 A3001 RMK A01 T02360113  RH  046%=      5-min Rain = 0
KCO2 040637Z 11004KT 24/11 A3001 RMK A01 T02350113  RH  046%=      5-min Rain = 0
KCO2 040638Z 11004KT 24/11 A3001 RMK A01 T02350112  RH  046%=      5-min Rain = 0
KCO2 040639Z 11005KT 24/11 A3001 RMK A01 T02370112  RH  045%=      5-min Rain = 0
KCO2 040640Z 11005KT 24/11 A3001 RMK A01 T02370112  RH  045%=      5-min Rain = 0
KCO2 040641Z 12005KT 24/11 A3001 RMK A01 T02370111  RH  045%=      5-min Rain = 0
KCO2 040642Z 12005KT 24/11 A3001 RMK A01 T02380110  RH  045%=      5-min Rain = 0
KCO2 040643Z 13005KT 24/11 A3001 RMK A01 T02380111  RH  045%=      5-min Rain = 0
KCO2 040644Z 13005KT 24/11 A3001 RMK A01 T02370110  RH  045%=      5-min Rain = 0
KCO2 040645Z 13005KT 24/11 A3001 RMK A01 T02360111  RH  045%=      5-min Rain = 0
KCO2 040646Z 13005KT 24/11 A3001 RMK A01 T02350111  RH  046%=      5-min Rain = 0
KCO2 040647Z 13005KT 23/11 A3001 RMK A01 T02340110  RH  046%=      5-min Rain = 0
KCO2 040648Z 13005KT 23/11 A3001 RMK A01 T02340111  RH  046%=      5-min Rain = 0
KCO2 040649Z 13005KT 24/11 A30 RMK A01 T02350112  RH  046%=      5-min Rain = 0
KCO2 040650Z 13005KT 23/11 A30 RMK A01 T02340112  RH  046%=      5-min Rain = 0
KCO2 040651Z 13006KT 23/11 A3001 RMK A01 T02340112  RH  046%=      5-min Rain = 0
KCO2 040652Z 14007KT 23/11 A3001 RMK A01 T02330113  RH  047%=      5-min Rain = 0
KCO2 040653Z 14006KT 23/11 A3001 RMK A01 T02320114  RH  048%=      5-min Rain = 0
KCO2 040654Z 14006KT 23/12 A3001 RMK A01 T02300115  RH  048%=      5-min Rain = 0
KCO2 040655Z 14005KT 23/12 A30 RMK A01 T02280115  RH  049%=      5-min Rain = 0
KCO2 040656Z 14005KT 23/12 A30 RMK A01 T02270115  RH  049%=      5-min Rain = 0
KCO2 040657Z 14005KT 23/12 A30 RMK A01 T02260116  RH  050%=      5-min Rain = 0
KCO2 040658Z 15005KT 23/12 A30 RMK A01 T02250115  RH  050%=      5-min Rain = 0
KCO2 040659Z 15005KT 23/12 A30 RMK A01 T02250115  RH  050%=      5-min Rain = 0
KCO2 040700Z 15005KT 22/12 A30 RMK A01 T02240115  RH  050%=      5-min Rain = 0
KCO2 040701Z 15005KT 22/12 A30 RMK A01 T02230115  RH  050%=      5-min Rain = 0
KCO2 040702Z 15005KT 22/12 A30 RMK A01 T02230115  RH  050%=      5-min Rain = 0
KCO2 040703Z 15005KT 22/12 A30 RMK A01 T02220115  RH  051%=      5-min Rain = 0
KCO2 040704Z 15005KT 22/12 A30 RMK A01 T02220115  RH  051%=      5-min Rain = 0
KCO2 040705Z 15005KT 22/12 A30 RMK A01 T02210115  RH  051%=      5-min Rain = 0
KCO2 040706Z 15006KT 22/12 A30 RMK A01 T02200115  RH  051%=      5-min Rain = 0
KCO2 040707Z 15006KT 22/12 A30 RMK A01 T02200116  RH  051%=      5-min Rain = 0
KCO2 040708Z 16006KT 22/12 A30 RMK A01 T02200117  RH  052%=      5-min Rain = 0
KCO2 040709Z 16006KT 22/12 A30 RMK A01 T02200117  RH  052%=      5-min Rain = 0
KCO2 040710Z 16006KT 22/12 A30 RMK A01 T02210119  RH  052%=      5-min Rain = 0
KCO2 040711Z 16006KT 22/12 A30 RMK A01 T02210120  RH  053%=      5-min Rain = 0
KCO2 040712Z 15006KT 22/12 A30 RMK A01 T02210121  RH  053%=      5-min Rain = 0
KCO2 040713Z 15006KT 22/12 A30 RMK A01 T02220122  RH  053%=      5-min Rain = 0
KCO2 040714Z 15006KT 22/12 A30 RMK A01 T02220123  RH  054%=      5-min Rain = 0
KCO2 040715Z 15006KT 22/12 A30 RMK A01 T02220124  RH  054%=      5-min Rain = 0
KCO2 040716Z 15006KT 22/13 A30 RMK A01 T02220126  RH  054%=      5-min Rain = 0
KCO2 040717Z 15006KT 22/13 A30 RMK A01 T02210127  RH  055%=      5-min Rain = 0
KCO2 040718Z 15006KT 22/13 A30 RMK A01 T02210127  RH  055%=      5-min Rain = 0
KCO2 040719Z 14006KT 22/13 A30 RMK A01 T02210127  RH  055%=      5-min Rain = 0
KCO2 040720Z 14006KT 22/13 A30 RMK A01 T02210126  RH  055%=      5-min Rain = 0
KCO2 040721Z 14006KT 22/13 A30 RMK A01 T02210127  RH  055%=      5-min Rain = 0
KCO2 040722Z 14006KT 22/13 A30 RMK A01 T02210126  RH  055%=      5-min Rain = 0
KCO2 040723Z 14006KT 22/13 A3001 RMK A01 T02220127  RH  055%=      5-min Rain = 0
KCO2 040724Z 14005KT 22/13 A3001 RMK A01 T02220127  RH  055%=      5-min Rain = 0
KCO2 040725Z 14005KT 22/13 A3001 RMK A01 T02230127  RH  055%=      5-min Rain = 0
KCO2 040726Z 14005KT 22/13 A3001 RMK A01 T02230128  RH  055%=      5-min Rain = 0
KCO2 040727Z 14005KT 22/13 A3001 RMK A01 T02230129  RH  055%=      5-min Rain = 0
KCO2 040728Z 13005KT 22/13 A3001 RMK A01 T02240129  RH  055%=      5-min Rain = 0
KCO2 040729Z 13004KT 22/13 A3001 RMK A01 T02240130  RH  055%=      5-min Rain = 0
KCO2 040730Z 13004KT 23/13 A3001 RMK A01 T02250130  RH  055%=      5-min Rain = 0
KCO2 040731Z 13005KT 23/13 A3001 RMK A01 T02250130  RH  055%=      5-min Rain = 0
KCO2 040732Z 13004KT 23/13 A3001 RMK A01 T02250129  RH  055%=      5-min Rain = 0
KCO2 040733Z 13005KT 23/13 A3001 RMK A01 T02250129  RH  054%=      5-min Rain = 0
KCO2 040734Z 13005KT 23/13 A3001 RMK A01 T02250129  RH  054%=      5-min Rain = 0
KCO2 040735Z 13005KT 23/13 A3001 RMK A01 T02250129  RH  055%=      5-min Rain = 0
KCO2 040736Z 13005KT 23/13 A30 RMK A01 T02250130  RH  055%=      5-min Rain = 0
KCO2 040737Z 13005KT 23/13 A30 RMK A01 T02250131  RH  056%=      5-min Rain = 0
KCO2 040738Z 13005KT 22/13 A30 RMK A01 T02240132  RH  056%=      5-min Rain = 0
KCO2 040739Z 13005KT 22/13 A30 RMK A01 T02230132  RH  056%=      5-min Rain = 0
KCO2 040740Z 13005KT 22/13 A30 RMK A01 T02230132  RH  057%=      5-min Rain = 0
KCO2 040741Z 13005KT 22/13 A30 RMK A01 T02230134  RH  057%=      5-min Rain = 0
KCO2 040742Z 12005KT 22/13 A30 RMK A01 T02230134  RH  057%=      5-min Rain = 0
KCO2 040743Z 12006KT 22/13 A30 RMK A01 T02220133  RH  057%=      5-min Rain = 0
KCO2 040744Z 13006KT 22/13 A30 RMK A01 T02220132  RH  057%=      5-min Rain = 0
KCO2 040745Z 13007KT 22/13 A30 RMK A01 T02220131  RH  056%=      5-min Rain = 0
KCO2 040746Z 13006KT 22/13 A30 RMK A01 T02220130  RH  056%=      5-min Rain = 0
KCO2 040747Z 13006KT 22/13 A30 RMK A01 T02220129  RH  056%=      5-min Rain = 0
KCO2 040748Z 13006KT 22/13 A30 RMK A01 T02220128  RH  055%=      5-min Rain = 0
KCO2 040749Z 12006KT 22/13 A30 RMK A01 T02220128  RH  055%=      5-min Rain = 0
KCO2 040750Z 12005KT 22/13 A30 RMK A01 T02220128  RH  055%=      5-min Rain = 0
KCO2 040751Z 12005KT 22/13 A30 RMK A01 T02220128  RH  055%=      5-min Rain = 0
KCO2 040752Z 12005KT 22/13 A30 RMK A01 T02210128  RH  055%=      5-min Rain = 0
KCO2 040753Z 13005KT 22/13 A30 RMK A01 T02210128  RH  056%=      5-min Rain = 0
KCO2 040754Z 13004KT 22/13 A30 RMK A01 T02200128  RH  056%=      5-min Rain = 0
KCO2 040755Z 13004KT 22/13 A30 RMK A01 T02190127  RH  056%=      5-min Rain = 0
KCO2 040756Z 13004KT 22/13 A30 RMK A01 T02190127  RH  056%=      5-min Rain = 0
KCO2 040757Z 13004KT 22/13 A30 RMK A01 T02200127  RH  056%=      5-min Rain = 0
KCO2 040758Z 13004KT 22/13 A30 RMK A01 T02190127  RH  056%=      5-min Rain = 0
KCO2 040759Z 13004KT 22/13 A30 RMK A01 T02190127  RH  056%=      5-min Rain = 0
KCO2 040800Z 13004KT 22/13 A30 RMK A01 T02190127  RH  056%=      5-min Rain = 0
KCO2 040801Z 13004KT 22/13 A30 RMK A01 T02200127  RH  055%=      5-min Rain = 0
KCO2 040802Z 13004KT 22/13 A30 RMK A01 T02200127  RH  056%=      5-min Rain = 0
KCO2 040803Z 13004KT 22/13 A30 RMK A01 T02200127  RH  056%=      5-min Rain = 0
KCO2 040804Z 13004KT 22/13 A30 RMK A01 T02200127  RH  055%=      5-min Rain = 0
KCO2 040805Z 13004KT 22/13 A30 RMK A01 T02210127  RH  055%=      5-min Rain = 0
KCO2 040806Z 13003KT 22/13 A30 RMK A01 T02210127  RH  055%=      5-min Rain = 0
KCO2 040807Z 12003KT 22/13 A30 RMK A01 T02220127  RH  055%=      5-min Rain = 0
KCO2 040808Z 12003KT 22/13 A30 RMK A01 T02230127  RH  054%=      5-min Rain = 0
KCO2 040809Z 12004KT 22/13 A30 RMK A01 T02240128  RH  054%=      5-min Rain = 0
KCO2 040810Z 12004KT 23/13 A30 RMK A01 T02250128  RH  054%=      5-min Rain = 0
KCO2 040811Z 12004KT 22/13 A30 RMK A01 T02240128  RH  054%=      5-min Rain = 0
KCO2 040812Z 12004KT 22/13 A30 RMK A01 T02240128  RH  054%=      5-min Rain = 0
KCO2 040813Z 12004KT 22/13 A30 RMK A01 T02240128  RH  054%=      5-min Rain = 0
KCO2 040814Z 12005KT 22/13 A30 RMK A01 T02240128  RH  055%=      5-min Rain = 0
KCO2 040815Z 12005KT 22/13 A30 RMK A01 T02220128  RH  055%=      5-min Rain = 0
KCO2 040816Z 12005KT 22/13 A30 RMK A01 T02210128  RH  055%=      5-min Rain = 0
KCO2 040817Z 12005KT 22/13 A30 RMK A01 T02200128  RH  056%=      5-min Rain = 0
KCO2 040818Z 12005KT 22/13 A30 RMK A01 T02190128  RH  056%=      5-min Rain = 0
KCO2 040819Z 12005KT 22/13 A30 RMK A01 T02180128  RH  057%=      5-min Rain = 0
KCO2 040820Z 12005KT 22/13 A30 RMK A01 T02170128  RH  057%=      5-min Rain = 0
KCO2 040821Z 12005KT 22/13 A30 RMK A01 T02160129  RH  057%=      5-min Rain = 0
KCO2 040822Z 12005KT 22/13 A30 RMK A01 T02150129  RH  058%=      5-min Rain = 0
KCO2 040823Z 12005KT 21/13 A30 RMK A01 T02140129  RH  058%=      5-min Rain = 0
KCO2 040824Z 12005KT 21/13 A30 RMK A01 T02130128  RH  058%=      5-min Rain = 0
KCO2 040825Z 12005KT 21/13 A30 RMK A01 T02130128  RH  059%=      5-min Rain = 0
KCO2 040826Z 12005KT 21/13 A30 RMK A01 T02130129  RH  059%=      5-min Rain = 0
KCO2 040827Z 12006KT 21/13 A30 RMK A01 T02130130  RH  059%=      5-min Rain = 0
KCO2 040828Z 12006KT 21/13 A3001 RMK A01 T02130130  RH  059%=      5-min Rain = 0
KCO2 040829Z 12006KT 21/13 A3001 RMK A01 T02130130  RH  059%=      5-min Rain = 0
KCO2 040830Z 11006KT 21/13 A3001 RMK A01 T02120130  RH  059%=      5-min Rain = 0
KCO2 040831Z 11006KT 21/13 A3001 RMK A01 T02130130  RH  059%=      5-min Rain = 0
KCO2 040832Z 11006KT 21/13 A3001 RMK A01 T02130131  RH  059%=      5-min Rain = 0
KCO2 040833Z 11006KT 21/13 A3001 RMK A01 T02130130  RH  059%=      5-min Rain = 0
KCO2 040834Z 11006KT 21/13 A30 RMK A01 T02130130  RH  059%=      5-min Rain = 0
KCO2 040835Z 11006KT 21/13 A30 RMK A01 T02140130  RH  059%=      5-min Rain = 0
KCO2 040836Z 11006KT 22/13 A30 RMK A01 T02150130  RH  058%=      5-min Rain = 0
KCO2 040837Z 12006KT 22/13 A30 RMK A01 T02160130  RH  058%=      5-min Rain = 0
KCO2 040838Z 12006KT 22/13 A30 RMK A01 T02160130  RH  058%=      5-min Rain = 0
KCO2 040839Z 12006KT 22/13 A30 RMK A01 T02160130  RH  058%=      5-min Rain = 0
KCO2 040840Z 12006KT 22/13 A30 RMK A01 T02160130  RH  058%=      5-min Rain = 0
KCO2 040841Z 12006KT 22/13 A30 RMK A01 T02160130  RH  058%=      5-min Rain = 0
KCO2 040842Z 12006KT 22/13 A3001 RMK A01 T02160130  RH  058%=      5-min Rain = 0
KCO2 040843Z 12005KT 22/13 A3001 RMK A01 T02160129  RH  058%=      5-min Rain = 0
KCO2 040844Z 11005KT 22/13 A3001 RMK A01 T02160129  RH  058%=      5-min Rain = 0
KCO2 040845Z 11005KT 22/13 A3001 RMK A01 T02180129  RH  057%=      5-min Rain = 0
KCO2 040846Z 11006KT 22/13 A3001 RMK A01 T02190130  RH  057%=      5-min Rain = 0
KCO2 040847Z 11006KT 22/13 A3001 RMK A01 T02200130  RH  057%=      5-min Rain = 0
KCO2 040848Z 11006KT 22/13 A3001 RMK A01 T02200130  RH  056%=      5-min Rain = 0
KCO2 040849Z 11006KT 22/13 A3001 RMK A01 T02210130  RH  056%=      5-min Rain = 0
KCO2 040850Z 11006KT 22/13 A3001 RMK A01 T02210131  RH  057%=      5-min Rain = 0
KCO2 040851Z 11006KT 22/13 A3001 RMK A01 T02200131  RH  057%=      5-min Rain = 0
KCO2 040852Z 11006KT 22/13 A3001 RMK A01 T02200131  RH  057%=      5-min Rain = 0
KCO2 040853Z 12006KT 22/13 A3001 RMK A01 T02200131  RH  057%=      5-min Rain = 0
KCO2 040854Z 12006KT 22/13 A3001 RMK A01 T02190131  RH  057%=      5-min Rain = 0
KCO2 040855Z 12006KT 22/13 A3001 RMK A01 T02180131  RH  058%=      5-min Rain = 0
KCO2 040856Z 12006KT 22/13 A3001 RMK A01 T02180132  RH  058%=      5-min Rain = 0
KCO2 040857Z 12006KT 22/13 A3001 RMK A01 T02170132  RH  058%=      5-min Rain = 0
KCO2 040858Z 13006KT 22/13 A3001 RMK A01 T02160132  RH  059%=      5-min Rain = 0
KCO2 040859Z 13006KT 22/13 A3001 RMK A01 T02160132  RH  059%=      5-min Rain = 0
KCO2 040900Z 13005KT 22/13 A3001 RMK A01 T02160132  RH  059%=      5-min Rain = 0
KCO2 040901Z 13005KT 22/13 A3001 RMK A01 T02160132  RH  059%=      5-min Rain = 0
KCO2 040902Z 13005KT 22/13 A3001 RMK A01 T02160132  RH  059%=      5-min Rain = 0
KCO2 040903Z 13005KT 22/13 A3001 RMK A01 T02160132  RH  059%=      5-min Rain = 0
KCO2 040904Z 13005KT 22/13 A3001 RMK A01 T02160132  RH  059%=      5-min Rain = 0
KCO2 040905Z 13005KT 22/13 A3001 RMK A01 T02160132  RH  059%=      5-min Rain = 0
KCO2 040906Z 14004KT 22/13 A3001 RMK A01 T02160132  RH  059%=      5-min Rain = 0
KCO2 040907Z 14005KT 22/13 A3001 RMK A01 T02160132  RH  059%=      5-min Rain = 0
KCO2 040908Z 14004KT 22/13 A3001 RMK A01 T02160132  RH  059%=      5-min Rain = 0
KCO2 040909Z 14004KT 22/13 A3001 RMK A01 T02150132  RH  059%=      5-min Rain = 0
KCO2 040910Z 14004KT 22/13 A3001 RMK A01 T02150132  RH  059%=      5-min Rain = 0
KCO2 040911Z 14004KT 21/13 A3001 RMK A01 T02140132  RH  059%=      5-min Rain = 0
KCO2 040912Z 14003KT 21/13 A3001 RMK A01 T02140132  RH  059%=      5-min Rain = 0
KCO2 040913Z 15003KT 21/13 A3001 RMK A01 T02140132  RH  060%=      5-min Rain = 0
KCO2 040914Z 15003KT 21/13 A3001 RMK A01 T02140132  RH  060%=      5-min Rain = 0
KCO2 040915Z 15003KT 21/13 A3001 RMK A01 T02140132  RH  059%=      5-min Rain = 0
KCO2 040916Z 14003KT 21/13 A3001 RMK A01 T02140132  RH  059%=      5-min Rain = 0
KCO2 040917Z 15003KT 21/13 A3001 RMK A01 T02140132  RH  059%=      5-min Rain = 0
KCO2 040918Z 15003KT 21/13 A3001 RMK A01 T02140132  RH  059%=      5-min Rain = 0
KCO2 040919Z 14003KT 21/13 A3001 RMK A01 T02140132  RH  059%=      5-min Rain = 0
KCO2 040920Z 15002KT 21/13 A3001 RMK A01 T02140133  RH  060%=      5-min Rain = 0
KCO2 040921Z 15002KT 21/13 A3001 RMK A01 T02130133  RH  060%=      5-min Rain = 0
KCO2 040922Z 15002KT 21/13 A3001 RMK A01 T02130133  RH  060%=      5-min Rain = 0
KCO2 040923Z 15002KT 21/13 A3001 RMK A01 T02120133  RH  061%=      5-min Rain = 0
KCO2 040924Z 16002KT 21/13 A3001 RMK A01 T02120133  RH  061%=      5-min Rain = 0
KCO2 040925Z 16002KT 21/13 A3001 RMK A01 T02120133  RH  061%=      5-min Rain = 0
KCO2 040926Z 16002KT 21/13 A3001 RMK A01 T02120133  RH  060%=      5-min Rain = 0
KCO2 040927Z 16002KT 21/13 A3001 RMK A01 T02120132  RH  060%=      5-min Rain = 0
KCO2 040928Z 16002KT 21/13 A3001 RMK A01 T02120132  RH  060%=      5-min Rain = 0
KCO2 040929Z 16002KT 21/13 A3001 RMK A01 T02120132  RH  060%=      5-min Rain = 0
KCO2 040930Z 16002KT 21/13 A3001 RMK A01 T02120131  RH  060%=      5-min Rain = 0
KCO2 040931Z 16002KT 21/13 A3001 RMK A01 T02130131  RH  060%=      5-min Rain = 0
KCO2 040932Z 16002KT 21/13 A3001 RMK A01 T02120131  RH  060%=      5-min Rain = 0
KCO2 040933Z 16001KT 21/13 A3001 RMK A01 T02120131  RH  060%=      5-min Rain = 0
KCO2 040934Z 16001KT 21/13 A3001 RMK A01 T02120132  RH  060%=      5-min Rain = 0
KCO2 040935Z 16001KT 21/13 A3001 RMK A01 T02110132  RH  060%=      5-min Rain = 0
KCO2 040936Z 18001KT 21/13 A3001 RMK A01 T02110132  RH  061%=      5-min Rain = 0
KCO2 040937Z 18002KT 21/13 A3001 RMK A01 T02100133  RH  061%=      5-min Rain = 0
KCO2 040938Z 18002KT 21/13 A3001 RMK A01 T02100133  RH  061%=      5-min Rain = 0
KCO2 040939Z 18002KT 21/13 A3001 RMK A01 T02100134  RH  062%=      5-min Rain = 0
KCO2 040940Z 18002KT 21/14 A3001 RMK A01 T02100136  RH  062%=      5-min Rain = 0
KCO2 040941Z 18002KT 21/14 A3001 RMK A01 T02110137  RH  063%=      5-min Rain = 0
KCO2 040942Z 18002KT 21/14 A3001 RMK A01 T02120138  RH  063%=      5-min Rain = 0
KCO2 040943Z 18001KT 21/14 A3002 RMK A01 T02120138  RH  063%=      5-min Rain = 0
KCO2 040944Z 18002KT 21/14 A3002 RMK A01 T02120138  RH  063%=      5-min Rain = 0
KCO2 040945Z 18002KT 21/14 A3002 RMK A01 T02120137  RH  062%=      5-min Rain = 0
KCO2 040946Z 18002KT 21/14 A3002 RMK A01 T02110135  RH  062%=      5-min Rain = 0
KCO2 040947Z 18002KT 21/14 A3002 RMK A01 T02110135  RH  062%=      5-min Rain = 0
KCO2 040948Z 18002KT 21/14 A3002 RMK A01 T02110135  RH  062%=      5-min Rain = 0
KCO2 040949Z 18002KT 21/14 A3002 RMK A01 T02110135  RH  062%=      5-min Rain = 0
KCO2 040950Z 18002KT 21/13 A3002 RMK A01 T02120134  RH  061%=      5-min Rain = 0
KCO2 040951Z 17002KT 21/13 A3002 RMK A01 T02130134  RH  061%=      5-min Rain = 0
KCO2 040952Z 17002KT 21/14 A3002 RMK A01 T02140135  RH  061%=      5-min Rain = 0
KCO2 040953Z 17001KT 21/14 A3002 RMK A01 T02140135  RH  060%=      5-min Rain = 0
KCO2 040954Z 16001KT 21/14 A3002 RMK A01 T02140135  RH  061%=      5-min Rain = 0
KCO2 040955Z 16001KT 21/13 A3002 RMK A01 T02140134  RH  060%=      5-min Rain = 0
KCO2 040956Z 16001KT 21/13 A3002 RMK A01 T02130134  RH  061%=      5-min Rain = 0
KCO2 040957Z 16001KT 21/13 A3002 RMK A01 T02130134  RH  061%=      5-min Rain = 0
KCO2 040958Z 16001KT 21/13 A3002 RMK A01 T02130134  RH  060%=      5-min Rain = 0
KCO2 040959Z 16001KT 21/13 A3002 RMK A01 T02130133  RH  060%=      5-min Rain = 0
KCO2 041000Z 16001KT 21/13 A3002 RMK A01 T02140134  RH  060%=      5-min Rain = 0
KCO2 041001Z 16001KT 22/13 A3002 RMK A01 T02150134  RH  060%=      5-min Rain = 0
KCO2 041002Z 16001KT 22/13 A3002 RMK A01 T02150134  RH  060%=      5-min Rain = 0
KCO2 041003Z 17001KT 22/13 A3002 RMK A01 T02150134  RH  060%=      5-min Rain = 0
KCO2 041004Z 17001KT 22/13 A3002 RMK A01 T02150133  RH  060%=      5-min Rain = 0
KCO2 041005Z 17001KT 22/13 A3002 RMK A01 T02150133  RH  059%=      5-min Rain = 0
KCO2 041006Z 19001KT 22/13 A3002 RMK A01 T02160133  RH  059%=      5-min Rain = 0
KCO2 041007Z 19001KT 22/13 A3002 RMK A01 T02170133  RH  059%=      5-min Rain = 0
KCO2 041008Z 20001KT 22/13 A3002 RMK A01 T02180133  RH  058%=      5-min Rain = 0
KCO2 041009Z 20001KT 22/13 A3002 RMK A01 T02180132  RH  058%=      5-min Rain = 0
KCO2 041010Z 20001KT 22/13 A3002 RMK A01 T02190132  RH  058%=      5-min Rain = 0
KCO2 041011Z 20001KT 22/13 A3002 RMK A01 T02200132  RH  057%=      5-min Rain = 0
KCO2 041012Z 20001KT 22/13 A3002 RMK A01 T02210131  RH  057%=      5-min Rain = 0
KCO2 041013Z 20001KT 22/13 A3002 RMK A01 T02220131  RH  056%=      5-min Rain = 0
KCO2 041014Z 20001KT 22/13 A3002 RMK A01 T02220132  RH  056%=      5-min Rain = 0
KCO2 041015Z 19002KT 22/13 A3002 RMK A01 T02230132  RH  056%=      5-min Rain = 0
KCO2 041016Z 19002KT 22/13 A3002 RMK A01 T02240132  RH  056%=      5-min Rain = 0
KCO2 041017Z 18002KT 23/13 A3002 RMK A01 T02250132  RH  055%=      5-min Rain = 0
KCO2 041018Z 17002KT 23/13 A3002 RMK A01 T02260132  RH  055%=      5-min Rain = 0
KCO2 041019Z 17002KT 23/13 A3002 RMK A01 T02260132  RH  055%=      5-min Rain = 0
KCO2 041020Z 16002KT 23/13 A3002 RMK A01 T02270132  RH  055%=      5-min Rain = 0
KCO2 041021Z 16002KT 23/13 A3002 RMK A01 T02280133  RH  055%=      5-min Rain = 0
KCO2 041022Z 16002KT 23/13 A3002 RMK A01 T02280132  RH  055%=      5-min Rain = 0
KCO2 041023Z 16002KT 23/13 A3002 RMK A01 T02280133  RH  055%=      5-min Rain = 0
KCO2 041024Z 15002KT 23/13 A3002 RMK A01 T02290133  RH  055%=      5-min Rain = 0
KCO2 041025Z 14002KT 23/13 A3002 RMK A01 T02290133  RH  054%=      5-min Rain = 0
KCO2 041026Z 14003KT 23/13 A3002 RMK A01 T02300134  RH  055%=      5-min Rain = 0
KCO2 041027Z 14002KT 23/13 A3002 RMK A01 T02290134  RH  055%=      5-min Rain = 0
KCO2 041028Z 13002KT 23/14 A3002 RMK A01 T02270135  RH  056%=      5-min Rain = 0
KCO2 041029Z 13003KT 23/14 A3002 RMK A01 T02260137  RH  057%=      5-min Rain = 0
KCO2 041030Z 13003KT 22/14 A3002 RMK A01 T02240137  RH  058%=      5-min Rain = 0
KCO2 041031Z 13003KT 22/14 A3002 RMK A01 T02230135  RH  057%=      5-min Rain = 0
KCO2 041032Z 13003KT 22/14 A3002 RMK A01 T02240135  RH  057%=      5-min Rain = 0
KCO2 041033Z 13003KT 22/14 A3002 RMK A01 T02230136  RH  058%=      5-min Rain = 0
KCO2 041034Z 13003KT 22/14 A3002 RMK A01 T02220136  RH  058%=      5-min Rain = 0
KCO2 041035Z 13003KT 22/14 A3002 RMK A01 T02210136  RH  058%=      5-min Rain = 0
KCO2 041036Z 12003KT 22/14 A3002 RMK A01 T02200135  RH  059%=      5-min Rain = 0
KCO2 041037Z 12003KT 22/14 A3002 RMK A01 T02190135  RH  059%=      5-min Rain = 0
KCO2 041038Z 12003KT 22/14 A3002 RMK A01 T02190136  RH  059%=      5-min Rain = 0
KCO2 041039Z 12003KT 22/14 A3002 RMK A01 T02180137  RH  060%=      5-min Rain = 0
KCO2 041040Z 12004KT 22/14 A3002 RMK A01 T02170136  RH  060%=      5-min Rain = 0
KCO2 041041Z 12004KT 22/14 A3002 RMK A01 T02170136  RH  060%=      5-min Rain = 0
KCO2 041042Z 12004KT 22/14 A3002 RMK A01 T02160135  RH  060%=      5-min Rain = 0
KCO2 041043Z 12004KT 22/14 A3002 RMK A01 T02150135  RH  060%=      5-min Rain = 0
KCO2 041044Z 12004KT 22/14 A3002 RMK A01 T02150136  RH  060%=      5-min Rain = 0
KCO2 041045Z 11004KT 22/14 A3002 RMK A01 T02150135  RH  060%=      5-min Rain = 0
KCO2 041046Z 12004KT 21/14 A3002 RMK A01 T02140135  RH  061%=      5-min Rain = 0
KCO2 041047Z 12004KT 21/14 A3002 RMK A01 T02140135  RH  061%=      5-min Rain = 0
KCO2 041048Z 11004KT 21/14 A3002 RMK A01 T02130135  RH  061%=      5-min Rain = 0
KCO2 041049Z 11004KT 21/14 A3002 RMK A01 T02130135  RH  061%=      5-min Rain = 0
KCO2 041050Z 11004KT 21/14 A3001 RMK A01 T02130135  RH  061%=      5-min Rain = 0
KCO2 041051Z 12004KT 21/14 A3001 RMK A01 T02120135  RH  061%=      5-min Rain = 0
KCO2 041052Z 12004KT 21/14 A3001 RMK A01 T02120135  RH  062%=      5-min Rain = 0
KCO2 041053Z 12004KT 21/13 A3001 RMK A01 T02110134  RH  062%=      5-min Rain = 0
KCO2 041054Z 12004KT 21/14 A3001 RMK A01 T02110135  RH  062%=      5-min Rain = 0
KCO2 041055Z 12004KT 21/13 A3001 RMK A01 T02110134  RH  062%=      5-min Rain = 0
KCO2 041056Z 12004KT 21/13 A3001 RMK A01 T02110134  RH  061%=      5-min Rain = 0
KCO2 041057Z 12004KT 21/13 A3001 RMK A01 T02120134  RH  061%=      5-min Rain = 0
KCO2 041058Z 12003KT 21/13 A3001 RMK A01 T02130134  RH  061%=      5-min Rain = 0
KCO2 041059Z 11003KT 21/14 A3001 RMK A01 T02140135  RH  061%=      5-min Rain = 0
KCO2 041100Z 12003KT 21/14 A3001 RMK A01 T02140136  RH  061%=      5-min Rain = 0
KCO2 041101Z 12003KT 21/14 A3001 RMK A01 T02130135  RH  061%=      5-min Rain = 0
KCO2 041102Z 13003KT 21/13 A3001 RMK A01 T02130134  RH  060%=      5-min Rain = 0
KCO2 041103Z 13003KT 22/13 A3001 RMK A01 T02150133  RH  060%=      5-min Rain = 0
KCO2 041104Z 13003KT 22/13 A3001 RMK A01 T02160133  RH  059%=      5-min Rain = 0
KCO2 041105Z 13003KT 22/13 A3002 RMK A01 T02170134  RH  059%=      5-min Rain = 0
KCO2 041106Z 13003KT 22/13 A3002 RMK A01 T02170133  RH  059%=      5-min Rain = 0
KCO2 041107Z 12004KT 22/13 A3002 RMK A01 T02170134  RH  059%=      5-min Rain = 0
KCO2 041108Z 12004KT 22/14 A3002 RMK A01 T02170135  RH  059%=      5-min Rain = 0
KCO2 041109Z 11004KT 22/13 A3002 RMK A01 T02170134  RH  059%=      5-min Rain = 0
KCO2 041110Z 10004KT 22/13 A3002 RMK A01 T02160134  RH  059%=      5-min Rain = 0
KCO2 041111Z 10004KT 22/13 A3002 RMK A01 T02160134  RH  060%=      5-min Rain = 0
KCO2 041112Z 10004KT 21/13 A3002 RMK A01 T02140134  RH  060%=      5-min Rain = 0
KCO2 041113Z 10004KT 21/13 A3002 RMK A01 T02140134  RH  060%=      5-min Rain = 0
KCO2 041114Z 10004KT 21/13 A3002 RMK A01 T02130134  RH  061%=      5-min Rain = 0
KCO2 041115Z 09004KT 21/13 A3002 RMK A01 T02120134  RH  061%=      5-min Rain = 0
KCO2 041116Z 09004KT 21/13 A3002 RMK A01 T02110133  RH  061%=      5-min Rain = 0
KCO2 041117Z 10004KT 21/13 A3002 RMK A01 T02110134  RH  061%=      5-min Rain = 0
KCO2 041118Z 09003KT 21/13 A3003 RMK A01 T02100134  RH  062%=      5-min Rain = 0
KCO2 041119Z 09003KT 21/13 A3003 RMK A01 T02100133  RH  062%=      5-min Rain = 0
KCO2 041120Z 10004KT 21/13 A3003 RMK A01 T02100133  RH  061%=      5-min Rain = 0
KCO2 041121Z 10004KT 21/13 A3003 RMK A01 T02100133  RH  061%=      5-min Rain = 0
KCO2 041122Z 10004KT 21/13 A3003 RMK A01 T02110133  RH  061%=      5-min Rain = 0
KCO2 041123Z 10004KT 21/13 A3003 RMK A01 T02110133  RH  061%=      5-min Rain = 0
KCO2 041124Z 10004KT 21/13 A3003 RMK A01 T02110134  RH  061%=      5-min Rain = 0
KCO2 041125Z 10004KT 21/13 A3003 RMK A01 T02110134  RH  061%=      5-min Rain = 0
KCO2 041126Z 11004KT 21/13 A3003 RMK A01 T02110134  RH  062%=      5-min Rain = 0
KCO2 041127Z 11003KT 21/13 A3003 RMK A01 T02100134  RH  062%=      5-min Rain = 0
KCO2 041128Z 11003KT 21/13 A3003 RMK A01 T02100134  RH  062%=      5-min Rain = 0
KCO2 041129Z 11003KT 21/13 A3003 RMK A01 T02100134  RH  062%=      5-min Rain = 0
KCO2 041130Z 11003KT 21/13 A3003 RMK A01 T02110134  RH  061%=      5-min Rain = 0
KCO2 041131Z 11003KT 21/13 A3003 RMK A01 T02110134  RH  061%=      5-min Rain = 0
KCO2 041132Z 11003KT 21/13 A3003 RMK A01 T02110134  RH  061%=      5-min Rain = 0
KCO2 041133Z 11003KT 21/13 A3003 RMK A01 T02110134  RH  061%=      5-min Rain = 0
KCO2 041134Z 11003KT 21/13 A3003 RMK A01 T02110134  RH  061%=      5-min Rain = 0
KCO2 041135Z 11003KT 21/13 A3003 RMK A01 T02120134  RH  061%=      5-min Rain = 0
KCO2 041136Z 10002KT 21/13 A3003 RMK A01 T02120134  RH  061%=      5-min Rain = 0
KCO2 041137Z 10003KT 21/13 A3003 RMK A01 T02130134  RH  061%=      5-min Rain = 0
KCO2 041138Z 10003KT 21/13 A3003 RMK A01 T02120134  RH  061%=      5-min Rain = 0
KCO2 041139Z 10003KT 21/13 A3003 RMK A01 T02120134  RH  061%=      5-min Rain = 0
KCO2 041140Z 10002KT 21/13 A3003 RMK A01 T02120134  RH  061%=      5-min Rain = 0
KCO2 041141Z 10002KT 21/14 A3003 RMK A01 T02120135  RH  061%=      5-min Rain = 0
KCO2 041142Z 10002KT 21/14 A3003 RMK A01 T02120135  RH  061%=      5-min Rain = 0
KCO2 041143Z 10002KT 21/14 A3003 RMK A01 T02120135  RH  061%=      5-min Rain = 0
KCO2 041144Z 11001KT 21/14 A3003 RMK A01 T02110135  RH  062%=      5-min Rain = 0
KCO2 041145Z 12001KT 21/14 A3003 RMK A01 T02100135  RH  062%=      5-min Rain = 0
KCO2 041146Z 12001KT 21/14 A3003 RMK A01 T02090135  RH  062%=      5-min Rain = 0
KCO2 041147Z 13001KT 21/14 A3003 RMK A01 T02090135  RH  063%=      5-min Rain = 0
KCO2 041148Z 13001KT 21/14 A3003 RMK A01 T02090135  RH  062%=      5-min Rain = 0
KCO2 041149Z 14001KT 21/13 A3003 RMK A01 T02090134  RH  062%=      5-min Rain = 0
KCO2 041150Z 15001KT 21/14 A3003 RMK A01 T02100135  RH  062%=      5-min Rain = 0
KCO2 041151Z 15002KT 21/14 A3003 RMK A01 T02100135  RH  062%=      5-min Rain = 0
KCO2 041152Z 16002KT 21/14 A3003 RMK A01 T02100135  RH  062%=      5-min Rain = 0
KCO2 041153Z 16002KT 21/14 A3003 RMK A01 T02120135  RH  062%=      5-min Rain = 0
KCO2 041154Z 16002KT 21/14 A3003 RMK A01 T02130135  RH  061%=      5-min Rain = 0
KCO2 041155Z 16001KT 21/14 A3003 RMK A01 T02140136  RH  061%=      5-min Rain = 0
KCO2 041156Z 12001KT 21/14 A3003 RMK A01 T02120138  RH  063%=      5-min Rain = 0
KCO2 041157Z 11000KT 21/14 A3004 RMK A01 T02080137  RH  064%=      5-min Rain = 0
KCO2 041158Z 11000KT 21/14 A3004 RMK A01 T02050137  RH  065%=      5-min Rain = 0
KCO2 041159Z 11000KT 20/14 A3004 RMK A01 T02040136  RH  065%=      5-min Rain = 0
KCO2 041200Z 00000KT 20/14 A3004 RMK A01 T02020137  RH  066%=      5-min Rain = 0
KCO2 041201Z 00000KT 20/14 A3004 RMK A01 T02010136  RH  066%=      5-min Rain = 0
KCO2 041202Z 00000KT 20/14 A3003 RMK A01 T02000136  RH  067%=      5-min Rain = 0
KCO2 041203Z 00000KT 20/14 A3003 RMK A01 T02000136  RH  066%=      5-min Rain = 0
KCO2 041204Z 00000KT 20/14 A3003 RMK A01 T02000135  RH  066%=      5-min Rain = 0
KCO2 041205Z 11000KT 20/14 A3003 RMK A01 T02000136  RH  067%=      5-min Rain = 0
KCO2 041206Z 11001KT 20/14 A3003 RMK A01 T02000136  RH  066%=      5-min Rain = 0
KCO2 041207Z 15001KT 20/14 A3003 RMK A01 T02000136  RH  066%=      5-min Rain = 0
KCO2 041208Z 15001KT 20/14 A3003 RMK A01 T02000138  RH  067%=      5-min Rain = 0
KCO2 041209Z 15001KT 20/14 A3003 RMK A01 T02000140  RH  068%=      5-min Rain = 0
KCO2 041210Z 15001KT 20/14 A3003 RMK A01 T02010141  RH  068%=      5-min Rain = 0
KCO2 041211Z 15001KT 20/14 A3003 RMK A01 T02010138  RH  067%=      5-min Rain = 0
KCO2 041212Z 15001KT 20/14 A3003 RMK A01 T02020136  RH  065%=      5-min Rain = 0
KCO2 041213Z 15001KT 20/14 A3003 RMK A01 T02040136  RH  065%=      5-min Rain = 0
KCO2 041214Z 15001KT 21/14 A3003 RMK A01 T02060136  RH  064%=      5-min Rain = 0
KCO2 041215Z 15002KT 21/14 A3003 RMK A01 T02080140  RH  065%=      5-min Rain = 0
KCO2 041216Z 15002KT 21/14 A3003 RMK A01 T02100142  RH  065%=      5-min Rain = 0
KCO2 041217Z 15002KT 21/14 A3003 RMK A01 T02110140  RH  064%=      5-min Rain = 0
KCO2 041218Z 15002KT 21/14 A3003 RMK A01 T02120135  RH  062%=      5-min Rain = 0
KCO2 041219Z 15003KT 21/14 A3003 RMK A01 T02130137  RH  062%=      5-min Rain = 0
KCO2 041220Z 15003KT 21/14 A3003 RMK A01 T02140139  RH  062%=      5-min Rain = 0
KCO2 041221Z 14003KT 22/14 A3003 RMK A01 T02150140  RH  062%=      5-min Rain = 0
KCO2 041222Z 14003KT 22/14 A3003 RMK A01 T02160143  RH  063%=      5-min Rain = 0
KCO2 041223Z 14004KT 22/14 A3003 RMK A01 T02160144  RH  064%=      5-min Rain = 0
KCO2 041224Z 13004KT 22/14 A3003 RMK A01 T02160144  RH  064%=      5-min Rain = 0
KCO2 041225Z 13004KT 22/14 A3003 RMK A01 T02170144  RH  063%=      5-min Rain = 0
KCO2 041226Z 13005KT 22/14 A3003 RMK A01 T02180144  RH  063%=      5-min Rain = 0
KCO2 041227Z 13005KT 22/15 A3003 RMK A01 T02190145  RH  063%=      5-min Rain = 0
KCO2 041228Z 13005KT 22/15 A3003 RMK A01 T02190146  RH  063%=      5-min Rain = 0
KCO2 041229Z 12004KT 22/14 A3003 RMK A01 T02200144  RH  062%=      5-min Rain = 0
KCO2 041230Z 12004KT 22/14 A3003 RMK A01 T02210144  RH  062%=      5-min Rain = 0
KCO2 041231Z 13004KT 22/15 A3003 RMK A01 T02210145  RH  062%=      5-min Rain = 0
KCO2 041232Z 12004KT 22/15 A3003 RMK A01 T02220146  RH  062%=      5-min Rain = 0
KCO2 041233Z 13003KT 22/15 A3003 RMK A01 T02220147  RH  062%=      5-min Rain = 0
KCO2 041234Z 13003KT 22/15 A3003 RMK A01 T02230148  RH  062%=      5-min Rain = 0
KCO2 041235Z 13003KT 22/15 A3003 RMK A01 T02240149  RH  063%=      5-min Rain = 0
KCO2 041236Z 13003KT 23/15 A3003 RMK A01 T02250150  RH  063%=      5-min Rain = 0
KCO2 041237Z 13003KT 23/15 A3003 RMK A01 T02250150  RH  062%=      5-min Rain = 0
KCO2 041238Z 13003KT 23/15 A3003 RMK A01 T02260151  RH  062%=      5-min Rain = 0
KCO2 041239Z 13003KT 23/15 A3003 RMK A01 T02270151  RH  062%=      5-min Rain = 0
KCO2 041240Z 14003KT 23/15 A3003 RMK A01 T02270152  RH  063%=      5-min Rain = 0
KCO2 041241Z 14003KT 23/15 A3003 RMK A01 T02280154  RH  063%=      5-min Rain = 0
KCO2 041242Z 14003KT 23/15 A3003 RMK A01 T02290154  RH  062%=      5-min Rain = 0
KCO2 041243Z 13003KT 23/15 A3003 RMK A01 T02300154  RH  062%=      5-min Rain = 0
KCO2 041244Z 13002KT 23/15 A3003 RMK A01 T02310153  RH  062%=      5-min Rain = 0
KCO2 041245Z 13002KT 23/15 A3003 RMK A01 T02320154  RH  062%=      5-min Rain = 0
KCO2 041246Z 13002KT 23/15 A3003 RMK A01 T02330153  RH  061%=      5-min Rain = 0
KCO2 041247Z 13002KT 23/15 A3003 RMK A01 T02330153  RH  061%=      5-min Rain = 0
KCO2 041248Z 13002KT 23/15 A3003 RMK A01 T02340152  RH  060%=      5-min Rain = 0
KCO2 041249Z 13002KT 24/15 A3003 RMK A01 T02350153  RH  060%=      5-min Rain = 0
KCO2 041250Z 13003KT 24/16 A3003 RMK A01 T02360156  RH  061%=      5-min Rain = 0
KCO2 041251Z 12003KT 24/16 A3003 RMK A01 T02360156  RH  061%=      5-min Rain = 0
KCO2 041252Z 13003KT 24/16 A3003 RMK A01 T02370156  RH  061%=      5-min Rain = 0
KCO2 041253Z 13003KT 24/16 A3003 RMK A01 T02380158  RH  061%=      5-min Rain = 0
KCO2 041254Z 13003KT 24/16 A3003 RMK A01 T02380159  RH  061%=      5-min Rain = 0
KCO2 041255Z 13003KT 24/16 A3003 RMK A01 T02390160  RH  061%=      5-min Rain = 0
KCO2 041256Z 12003KT 24/16 A3003 RMK A01 T02390159  RH  061%=      5-min Rain = 0
KCO2 041257Z 12003KT 24/16 A3003 RMK A01 T02400160  RH  061%=      5-min Rain = 0
KCO2 041258Z 12003KT 24/16 A3003 RMK A01 T02410160  RH  061%=      5-min Rain = 0
KCO2 041259Z 12003KT 24/16 A3003 RMK A01 T02420157  RH  059%=      5-min Rain = 0
KCO2 041300Z 12003KT 24/16 A3003 RMK A01 T02430156  RH  059%=      5-min Rain = 0
KCO2 041301Z 13003KT 24/16 A3003 RMK A01 T02430156  RH  058%=      5-min Rain = 0
KCO2 041302Z 13003KT 24/16 A3003 RMK A01 T02430157  RH  059%=      5-min Rain = 0
KCO2 041303Z 12003KT 24/16 A3003 RMK A01 T02440160  RH  059%=      5-min Rain = 0
KCO2 041304Z 13003KT 24/16 A3003 RMK A01 T02440161  RH  060%=      5-min Rain = 0
KCO2 041305Z 13003KT 25/16 A3003 RMK A01 T02450160  RH  059%=      5-min Rain = 0
KCO2 041306Z 13003KT 25/16 A3003 RMK A01 T02450160  RH  059%=      5-min Rain = 0
KCO2 041307Z 13002KT 25/16 A3003 RMK A01 T02460160  RH  059%=      5-min Rain = 0
KCO2 041308Z 14003KT 25/16 A3003 RMK A01 T02480161  RH  058%=      5-min Rain = 0
KCO2 041309Z 13003KT 25/16 A3003 RMK A01 T02490159  RH  057%=      5-min Rain = 0
KCO2 041310Z 13003KT 25/15 A3003 RMK A01 T02500154  RH  055%=      5-min Rain = 0
KCO2 041311Z 13003KT 25/15 A3003 RMK A01 T02510153  RH  055%=      5-min Rain = 0
KCO2 041312Z 13003KT 25/15 A3003 RMK A01 T02520154  RH  055%=      5-min Rain = 0
KCO2 041313Z 13003KT 25/16 A3003 RMK A01 T02520155  RH  055%=      5-min Rain = 0
KCO2 041314Z 12002KT 25/16 A3003 RMK A01 T02530157  RH  055%=      5-min Rain = 0
KCO2 041315Z 13004KT 25/16 A3003 RMK A01 T02530158  RH  056%=      5-min Rain = 0
KCO2 041316Z 13003KT 25/15 A3003 RMK A01 T02540153  RH  054%=      5-min Rain = 0
KCO2 041317Z 12003KT 26/16 A3003 RMK A01 T02550156  RH  054%=      5-min Rain = 0
KCO2 041318Z 12003KT 26/16 A3003 RMK A01 T02560157  RH  054%=      5-min Rain = 0
KCO2 041319Z 12003KT 26/16 A3003 RMK A01 T02570157  RH  054%=      5-min Rain = 0
KCO2 041320Z 12003KT 26/16 A3003 RMK A01 T02570157  RH  054%=      5-min Rain = 0
KCO2 041321Z 12003KT 26/16 A3003 RMK A01 T02580157  RH  054%=      5-min Rain = 0
KCO2 041322Z 13002KT 26/16 A3003 RMK A01 T02590160  RH  054%=      5-min Rain = 0
KCO2 041323Z 13002KT 26/16 A3003 RMK A01 T02600160  RH  054%=      5-min Rain = 0
KCO2 041324Z 12002KT 26/16 A3003 RMK A01 T02610160  RH  054%=      5-min Rain = 0
KCO2 041325Z 12002KT 26/16 A3003 RMK A01 T02620164  RH  055%=      5-min Rain = 0
KCO2 041326Z 11002KT 26/16 A3003 RMK A01 T02630163  RH  054%=      5-min Rain = 0
KCO2 041327Z 10002KT 26/16 A3003 RMK A01 T02640160  RH  053%=      5-min Rain = 0
KCO2 041328Z 10002KT 26/16 A3003 RMK A01 T02640160  RH  053%=      5-min Rain = 0
KCO2 041329Z 13002KT 26/16 A3004 RMK A01 T02640164  RH  054%=      5-min Rain = 0
KCO2 041330Z 13002KT 27/16 A3004 RMK A01 T02650163  RH  053%=      5-min Rain = 0
KCO2 041331Z 13002KT 27/16 A3004 RMK A01 T02660162  RH  053%=      5-min Rain = 0
KCO2 041332Z 14002KT 27/16 A3003 RMK A01 T02670163  RH  053%=      5-min Rain = 0
KCO2 041333Z 14003KT 27/16 A3003 RMK A01 T02670159  RH  051%=      5-min Rain = 0
KCO2 041334Z 12002KT 27/17 A3003 RMK A01 T02680165  RH  053%=      5-min Rain = 0
KCO2 041335Z 14002KT 27/17 A3003 RMK A01 T02680168  RH  054%=      5-min Rain = 0
KCO2 041336Z 14003KT 27/16 A3003 RMK A01 T02690159  RH  051%=      5-min Rain = 0
KCO2 041337Z 13003KT 27/16 A3003 RMK A01 T02700157  RH  050%=      5-min Rain = 0
KCO2 041338Z 13002KT 27/16 A3003 RMK A01 T02700159  RH  050%=      5-min Rain = 0
KCO2 041339Z 13002KT 27/16 A3003 RMK A01 T02710163  RH  052%=      5-min Rain = 0
KCO2 041340Z 12003KT 27/16 A3004 RMK A01 T02720163  RH  051%=      5-min Rain = 0
KCO2 041341Z 14003KT 27/16 A3004 RMK A01 T02720158  RH  050%=      5-min Rain = 0
KCO2 041342Z 13002KT 27/15 A3004 RMK A01 T02720154  RH  048%=      5-min Rain = 0
KCO2 041343Z 12003KT 27/16 A3004 RMK A01 T02720156  RH  049%=      5-min Rain = 0
KCO2 041344Z 12002KT 27/16 A3004 RMK A01 T02730157  RH  049%=      5-min Rain = 0
KCO2 041345Z 13003KT 27/16 A3004 RMK A01 T02730157  RH  049%=      5-min Rain = 0
KCO2 041346Z 14002KT 27/16 A3004 RMK A01 T02730159  RH  050%=      5-min Rain = 0
KCO2 041347Z 17002KT 27/16 A3004 RMK A01 T02740157  RH  049%=      5-min Rain = 0
KCO2 041348Z 16001KT 28/16 A3004 RMK A01 T02750156  RH  048%=      5-min Rain = 0
KCO2 041349Z 14001KT 28/16 A3004 RMK A01 T02760156  RH  048%=      5-min Rain = 0
KCO2 041350Z 09000KT 28/16 A3004 RMK A01 T02770156  RH  048%=      5-min Rain = 0
KCO2 041351Z 10001KT 28/16 A3004 RMK A01 T02790158  RH  048%=      5-min Rain = 0
KCO2 041352Z 13001KT 28/16 A3004 RMK A01 T02800157  RH  047%=      5-min Rain = 0
KCO2 041353Z 17002KT 28/16 A3004 RMK A01 T02820156  RH  046%=      5-min Rain = 0
KCO2 041354Z 18002KT 28/16 A3004 RMK A01 T02820155  RH  046%=      5-min Rain = 0
KCO2 041355Z 19003KT 28/16 A3004 RMK A01 T02820159  RH  047%=      5-min Rain = 0
KCO2 041356Z 19002KT 28/16 A3004 RMK A01 T02810159  RH  047%=      5-min Rain = 0
KCO2 041357Z 21002KT 28/16 A3004 RMK A01 T02820162  RH  048%=      5-min Rain = 0
KCO2 041358Z 21002KT 28/16 A3004 RMK A01 T02830161  RH  048%=      5-min Rain = 0
KCO2 041359Z 19002KT 28/16 A3003 RMK A01 T02830158  RH  047%=      5-min Rain = 0
KCO2 041400Z 20003KT 28/16 A3004 RMK A01 T02830157  RH  046%=      5-min Rain = 0
KCO2 041401Z 21003KT 28/16 A3004 RMK A01 T02830157  RH  046%=      5-min Rain = 0
KCO2 041402Z 22002KT 28/16 A3004 RMK A01 T02810156  RH  046%=      5-min Rain = 0
KCO2 041403Z 22002KT 28/16 A3004 RMK A01 T02800157  RH  047%=      5-min Rain = 0
KCO2 041404Z 20003KT 28/16 A3004 RMK A01 T02800156  RH  047%=      5-min Rain = 0
KCO2 041405Z 18002KT 28/16 A3004 RMK A01 T02800158  RH  047%=      5-min Rain = 0
KCO2 041406Z 18002KT 28/16 A3004 RMK A01 T02810160  RH  048%=      5-min Rain = 0
KCO2 041407Z 20002KT 28/16 A3003 RMK A01 T02820159  RH  047%=      5-min Rain = 0
KCO2 041408Z 22000KT 28/16 A3003 RMK A01 T02830161  RH  048%=      5-min Rain = 0
KCO2 041409Z 21002KT 29/16 A3003 RMK A01 T02850162  RH  047%=      5-min Rain = 0
KCO2 041410Z 23002KT 29/16 A3003 RMK A01 T02860163  RH  047%=      5-min Rain = 0
KCO2 041411Z 26002KT 29/16 A3003 RMK A01 T02860162  RH  047%=      5-min Rain = 0
KCO2 041412Z 25002KT 29/16 A3003 RMK A01 T02860160  RH  046%=      5-min Rain = 0
KCO2 041413Z 25002KT 29/16 A3004 RMK A01 T02850163  RH  047%=      5-min Rain = 0
KCO2 041414Z 28001KT 29/16 A3004 RMK A01 T02860164  RH  047%=      5-min Rain = 0
KCO2 041415Z 18001KT 29/16 A3003 RMK A01 T02880163  RH  047%=      5-min Rain = 0
KCO2 041416Z 19002KT 29/16 A3003 RMK A01 T02900163  RH  046%=      5-min Rain = 0
KCO2 041417Z 21001KT 29/16 A3003 RMK A01 T02900161  RH  046%=      5-min Rain = 0
KCO2 041418Z 21004KT 29/16 A3003 RMK A01 T02890164  RH  047%=      5-min Rain = 0
KCO2 041419Z 23003KT 29/17 A3003 RMK A01 T02890166  RH  047%=      5-min Rain = 0
KCO2 041420Z 24002KT 29/16 A3003 RMK A01 T02890163  RH  046%=      5-min Rain = 0
KCO2 041421Z 20002KT 29/16 A3003 RMK A01 T02880164  RH  047%=      5-min Rain = 0
KCO2 041422Z 20002KT 29/16 A3003 RMK A01 T02880164  RH  047%=      5-min Rain = 0
KCO2 041423Z 26004KT 29/16 A3003 RMK A01 T02890164  RH  047%=      5-min Rain = 0
KCO2 041424Z 22005KT 29/16 A3003 RMK A01 T02890164  RH  047%=      5-min Rain = 0
KCO2 041425Z 21004KT 29/16 A3003 RMK A01 T02890164  RH  047%=      5-min Rain = 0
KCO2 041426Z 20004KT 29/17 A3003 RMK A01 T02890165  RH  047%=      5-min Rain = 0
KCO2 041427Z 20003KT 29/17 A3003 RMK A01 T02890167  RH  048%=      5-min Rain = 0
KCO2 041428Z 20005KT 29/17 A3003 RMK A01 T02900166  RH  047%=      5-min Rain = 0
KCO2 041429Z 21003KT 29/17 A3003 RMK A01 T02900166  RH  047%=      5-min Rain = 0
KCO2 041430Z 19003KT 29/17 A3003 RMK A01 T02900165  RH  047%=      5-min Rain = 0
KCO2 041431Z 19004KT 29/17 A3003 RMK A01 T02900167  RH  047%=      5-min Rain = 0
KCO2 041432Z 21004KT 29/17 A3003 RMK A01 T02900167  RH  047%=      5-min Rain = 0
KCO2 041433Z 23004KT 29/16 A3003 RMK A01 T02910164  RH  046%=      5-min Rain = 0
KCO2 041434Z 23004KT 29/16 A3003 RMK A01 T02910164  RH  046%=      5-min Rain = 0
KCO2 041435Z 23006KT 29/17 A3003 RMK A01 T02910165  RH  047%=      5-min Rain = 0
KCO2 041436Z 24005KT 29/17 A3003 RMK A01 T02910167  RH  047%=      5-min Rain = 0
KCO2 041437Z 23005KT 29/17 A3003 RMK A01 T02930165  RH  046%=      5-min Rain = 0
KCO2 041438Z 24007KT 29/16 A3003 RMK A01 T02940164  RH  045%=      5-min Rain = 0
KCO2 041439Z 24008KT 29/17 A3003 RMK A01 T02940165  RH  046%=      5-min Rain = 0
KCO2 041440Z 23007KT 29/16 A3003 RMK A01 T02940164  RH  045%=      5-min Rain = 0
KCO2 041441Z 23006KT 30/17 A3003 RMK A01 T02950166  RH  046%=      5-min Rain = 0
KCO2 041442Z 23006KT 30/17 A3003 RMK A01 T02970168  RH  046%=      5-min Rain = 0
KCO2 041443Z 23007KT 30/17 A3003 RMK A01 T02990165  RH  044%=      5-min Rain = 0
KCO2 041444Z 21008KT 30/16 A3003 RMK A01 T02980164  RH  044%=      5-min Rain = 0
KCO2 041445Z 23006KT 30/16 A3003 RMK A01 T02970164  RH  045%=      5-min Rain = 0
KCO2 041446Z 24004KT 30/16 A3003 RMK A01 T02960164  RH  045%=      5-min Rain = 0
KCO2 041447Z 27004KT 30/17 A3003 RMK A01 T02970167  RH  046%=      5-min Rain = 0
KCO2 041448Z 27006KT 30/17 A3003 RMK A01 T02990165  RH  044%=      5-min Rain = 0
KCO2 041449Z 25007KT 30/17 A3003 RMK A01 T03000167  RH  045%=      5-min Rain = 0
KCO2 041450Z 26007KT 30/17 A3003 RMK A01 T03000165  RH  044%=      5-min Rain = 0
KCO2 041451Z 26008KT 30/17 A3003 RMK A01 T03000166  RH  045%=      5-min Rain = 0
KCO2 041452Z 25007KT 30/17 A3003 RMK A01 T03000165  RH  044%=      5-min Rain = 0
KCO2 041453Z 25009KT 30/17 A3003 RMK A01 T03000165  RH  044%=      5-min Rain = 0
KCO2 041454Z 25009KT 30/16 A3003 RMK A01 T03000164  RH  044%=      5-min Rain = 0
KCO2 041455Z 25008KT 30/17 A3003 RMK A01 T02990165  RH  044%=      5-min Rain = 0
KCO2 041456Z 26009KT 30/17 A3003 RMK A01 T03000165  RH  044%=      5-min Rain = 0
KCO2 041457Z 25008KT 30/17 A3003 RMK A01 T03000165  RH  044%=      5-min Rain = 0
KCO2 041458Z 24008KT 30/17 A3003 RMK A01 T02990165  RH  044%=      5-min Rain = 0
KCO2 041459Z 25008KT 30/17 A3003 RMK A01 T03000165  RH  044%=      5-min Rain = 0
KCO2 041500Z 23007KT 30/17 A3003 RMK A01 T03000166  RH  044%=      5-min Rain = 0
KCO2 041501Z 23007KT 30/17 A3003 RMK A01 T03010166  RH  044%=      5-min Rain = 0
KCO2 041502Z 22007KT 30/17 A3003 RMK A01 T03010167  RH  045%=      5-min Rain = 0
KCO2 041503Z 22008KT 30/17 A3003 RMK A01 T03020167  RH  044%=      5-min Rain = 0
KCO2 041504Z 22008KT 30/16 A3003 RMK A01 T03020164  RH  043%=      5-min Rain = 0
KCO2 041505Z 24008KT 30/17 A3003 RMK A01 T03010167  RH  044%=      5-min Rain = 0
KCO2 041506Z 23008KT 30/16 A3003 RMK A01 T03020164  RH  044%=      5-min Rain = 0
KCO2 041507Z 22007KT 30/17 A3003 RMK A01 T03000165  RH  044%=      5-min Rain = 0
KCO2 041508Z 23007KT 30/17 A3003 RMK A01 T03000165  RH  044%=      5-min Rain = 0
KCO2 041509Z 23006KT 30/16 A3003 RMK A01 T03010164  RH  044%=      5-min Rain = 0
KCO2 041510Z 25006KT 30/17 A3003 RMK A01 T03010167  RH  044%=      5-min Rain = 0
KCO2 041511Z 23007KT 30/17 A3003 RMK A01 T03030167  RH  044%=      5-min Rain = 0
KCO2 041512Z 26008KT 31/16 A3003 RMK A01 T03050164  RH  043%=      5-min Rain = 0
KCO2 041513Z 25008KT 31/17 A3003 RMK A01 T03060165  RH  043%=      5-min Rain = 0
KCO2 041514Z 24007KT 31/17 A3003 RMK A01 T03070166  RH  043%=      5-min Rain = 0
KCO2 041515Z 24007KT 31/17 A3004 RMK A01 T03080166  RH  043%=      5-min Rain = 0
KCO2 041516Z 24007KT 31/16 A3004 RMK A01 T03080164  RH  042%=      5-min Rain = 0
KCO2 041517Z 26004KT 31/17 A3004 RMK A01 T03070165  RH  043%=      5-min Rain = 0
KCO2 041518Z 26005KT 31/17 A3004 RMK A01 T03090169  RH  043%=      5-min Rain = 0
KCO2 041519Z 27006KT 31/16 A3004 RMK A01 T03110163  RH  041%=      5-min Rain = 0
KCO2 041520Z 27006KT 31/16 A3004 RMK A01 T03110162  RH  041%=      5-min Rain = 0
KCO2 041521Z 27005KT 31/16 A3004 RMK A01 T03090161  RH  041%=      5-min Rain = 0
KCO2 041522Z 28005KT 31/17 A3004 RMK A01 T03110167  RH  042%=      5-min Rain = 0
KCO2 041523Z 28007KT 31/16 A3004 RMK A01 T03140164  RH  040%=      5-min Rain = 0
KCO2 041524Z 27009KT 31/16 A3004 RMK A01 T03140162  RH  040%=      5-min Rain = 0
KCO2 041525Z 26008KT 31/16 A3004 RMK A01 T03120161  RH  040%=      5-min Rain = 0
KCO2 041526Z 25008KT 31/16 A3004 RMK A01 T03100161  RH  041%=      5-min Rain = 0
KCO2 041527Z 27009KT 31/16 A3004 RMK A01 T03100164  RH  041%=      5-min Rain = 0
KCO2 041528Z 26006KT 31/16 A3004 RMK A01 T03100161  RH  041%=      5-min Rain = 0
KCO2 041529Z 27005KT 31/16 A3004 RMK A01 T03090164  RH  042%=      5-min Rain = 0
KCO2 041530Z 26005KT 31/17 A3004 RMK A01 T03110165  RH  041%=      5-min Rain = 0
KCO2 041531Z 26008KT 31/16 A3004 RMK A01 T03120163  RH  041%=      5-min Rain = 0
KCO2 041532Z 26008KT 31/16 A3004 RMK A01 T03120161  RH  040%=      5-min Rain = 0
KCO2 041533Z 26008KT 31/16 A3004 RMK A01 T03120162  RH  040%=      5-min Rain = 0
KCO2 041534Z 26006KT 31/16 A3004 RMK A01 T03110162  RH  041%=      5-min Rain = 0
KCO2 041535Z 26007KT 31/16 A3004 RMK A01 T03100163  RH  041%=      5-min Rain = 0
KCO2 041536Z 25008KT 31/16 A3004 RMK A01 T03110163  RH  041%=      5-min Rain = 0
KCO2 041537Z 24007KT 31/17 A3004 RMK A01 T03110165  RH  042%=      5-min Rain = 0
KCO2 041538Z 25005KT 31/17 A3004 RMK A01 T03130166  RH  041%=      5-min Rain = 0
KCO2 041539Z 25008KT 32/17 A3004 RMK A01 T03160167  RH  041%=      5-min Rain = 0
KCO2 041540Z 26005KT 32/16 A3004 RMK A01 T03170164  RH  040%=      5-min Rain = 0
KCO2 041541Z 24004KT 32/16 A3004 RMK A01 T03170162  RH  039%=      5-min Rain = 0
KCO2 041542Z 25004KT 32/16 A3004 RMK A01 T03160164  RH  040%=      5-min Rain = 0
KCO2 041543Z 29005KT 32/17 A3004 RMK A01 T03170166  RH  040%=      5-min Rain = 0
KCO2 041544Z 30005KT 32/16 A3004 RMK A01 T03180164  RH  040%=      5-min Rain = 0
KCO2 041545Z 27005KT 32/17 A3004 RMK A01 T03180166  RH  040%=      5-min Rain = 0
KCO2 041546Z 28005KT 32/16 A3004 RMK A01 T03180163  RH  039%=      5-min Rain = 0
KCO2 041547Z 25004KT 32/17 A3004 RMK A01 T03180165  RH  040%=      5-min Rain = 0
KCO2 041548Z 24006KT 32/17 A3004 RMK A01 T03180165  RH  040%=      5-min Rain = 0
KCO2 041549Z 26005KT 32/16 A3004 RMK A01 T03190164  RH  039%=      5-min Rain = 0
KCO2 041550Z 27006KT 32/16 A3004 RMK A01 T03190164  RH  039%=      5-min Rain = 0
KCO2 041551Z 26004KT 32/16 A3004 RMK A01 T03200163  RH  039%=      5-min Rain = 0
KCO2 041552Z 25004KT 32/17 A3004 RMK A01 T03210165  RH  039%=      5-min Rain = 0
KCO2 041553Z 28005KT 32/16 A3004 RMK A01 T03220164  RH  039%=      5-min Rain = 0
KCO2 041554Z 27007KT 32/17 A3004 RMK A01 T03230165  RH  039%=      5-min Rain = 0
KCO2 041555Z 27006KT 32/17 A3004 RMK A01 T03230165  RH  039%=      5-min Rain = 0
KCO2 041556Z 25006KT 32/16 A3004 RMK A01 T03240164  RH  038%=      5-min Rain = 0
KCO2 041557Z 27004KT 32/17 A3004 RMK A01 T03240166  RH  039%=      5-min Rain = 0
KCO2 041558Z 25005KT 33/16 A3004 RMK A01 T03250164  RH  038%=      5-min Rain = 0
KCO2 041559Z 24003KT 32/16 A3004 RMK A01 T03230161  RH  038%=      5-min Rain = 0
KCO2 041600Z 27005KT 32/17 A3004 RMK A01 T03210165  RH  039%=      5-min Rain = 0
KCO2 041601Z 25008KT 32/17 A3004 RMK A01 T03230165  RH  039%=      5-min Rain = 0
KCO2 041602Z 24006KT 32/16 A3004 RMK A01 T03240164  RH  038%=      5-min Rain = 0
KCO2 041603Z 25008KT 33/16 A3004 RMK A01 T03250164  RH  038%=      5-min Rain = 0
KCO2 041604Z 24008KT 32/17 A3004 RMK A01 T03240165  RH  039%=      5-min Rain = 0
KCO2 041605Z 25006KT 33/17 A3004 RMK A01 T03250165  RH  038%=      5-min Rain = 0
KCO2 041606Z 27004KT 33/16 A3004 RMK A01 T03250163  RH  038%=      5-min Rain = 0
KCO2 041607Z 24007KT 32/16 A3004 RMK A01 T03240163  RH  038%=      5-min Rain = 0
KCO2 041608Z 22005KT 33/16 A3004 RMK A01 T03250164  RH  038%=      5-min Rain = 0
KCO2 041609Z 23007KT 33/16 A3004 RMK A01 T03250163  RH  038%=      5-min Rain = 0
KCO2 041610Z 22008KT 33/16 A3004 RMK A01 T03260163  RH  038%=      5-min Rain = 0
KCO2 041611Z 27007KT 33/16 A3004 RMK A01 T03260163  RH  038%=      5-min Rain = 0
KCO2 041612Z 25005KT 33/16 A3004 RMK A01 T03280163  RH  037%=      5-min Rain = 0
KCO2 041613Z 23009KT 33/17 A3004 RMK A01 T03300165  RH  037%=      5-min Rain = 0
KCO2 041614Z 24007KT 33/16 A3004 RMK A01 T03300164  RH  037%=      5-min Rain = 0
KCO2 041615Z 25003KT 33/16 A3004 RMK A01 T03290161  RH  037%=      5-min Rain = 0
KCO2 041616Z 25005KT 33/16 A3004 RMK A01 T03280164  RH  037%=      5-min Rain = 0
KCO2 041617Z 29006KT 33/17 A3004 RMK A01 T03310165  RH  037%=      5-min Rain = 0
KCO2 041618Z 28006KT 33/17 A3004 RMK A01 T03310165  RH  037%=      5-min Rain = 0
KCO2 041619Z 26006KT 33/16 A3004 RMK A01 T03320164  RH  037%=      5-min Rain = 0
KCO2 041620Z 27006KT 33/17 A3004 RMK A01 T03330167  RH  037%=      5-min Rain = 0
KCO2 041621Z 29004KT 33/17 A3004 RMK A01 T03340165  RH  037%=      5-min Rain = 0
KCO2 041622Z 29004KT 33/16 A3004 RMK A01 T03330163  RH  036%=      5-min Rain = 0
KCO2 041623Z 26005KT 33/16 A3004 RMK A01 T03310162  RH  036%=      5-min Rain = 0
KCO2 041624Z 29004KT 33/16 A3004 RMK A01 T03310163  RH  037%=      5-min Rain = 0
KCO2 041625Z 31005KT 33/16 A3004 RMK A01 T03320161  RH  036%=      5-min Rain = 0
KCO2 041626Z 31005KT 33/16 A3004 RMK A01 T03330164  RH  036%=      5-min Rain = 0
KCO2 041627Z 30006KT 34/16 A3004 RMK A01 T03350162  RH  036%=      5-min Rain = 0
KCO2 041628Z 27004KT 34/16 A3004 RMK A01 T03350160  RH  035%=      5-min Rain = 0
KCO2 041629Z 30005KT 33/16 A3004 RMK A01 T03330160  RH  036%=      5-min Rain = 0
KCO2 041630Z 30002KT 33/16 A3004 RMK A01 T03330161  RH  036%=      5-min Rain = 0
KCO2 041631Z 24002KT 33/16 A3004 RMK A01 T03340164  RH  036%=      5-min Rain = 0
KCO2 041632Z 22005KT 34/17 A3004 RMK A01 T03360166  RH  036%=      5-min Rain = 0
KCO2 041633Z 20005KT 34/16 A3004 RMK A01 T03380164  RH  035%=      5-min Rain = 0
KCO2 041634Z 21007KT 34/17 A3004 RMK A01 T03380166  RH  036%=      5-min Rain = 0
KCO2 041635Z 22008KT 34/16 A3004 RMK A01 T03370164  RH  036%=      5-min Rain = 0
KCO2 041636Z 22009KT 34/16 A3004 RMK A01 T03370164  RH  036%=      5-min Rain = 0
KCO2 041637Z 22008KT 34/17 A3004 RMK A01 T03370165  RH  036%=      5-min Rain = 0
KCO2 041638Z 23005KT 34/16 A3004 RMK A01 T03390161  RH  035%=      5-min Rain = 0
KCO2 041639Z 22004KT 34/16 A3004 RMK A01 T03360161  RH  035%=      5-min Rain = 0
KCO2 041640Z 21004KT 34/16 A3004 RMK A01 T03360163  RH  036%=      5-min Rain = 0
KCO2 041641Z 21004KT 34/17 A3004 RMK A01 T03390168  RH  036%=      5-min Rain = 0
KCO2 041642Z 25006KT 34/17 A3004 RMK A01 T03430165  RH  035%=      5-min Rain = 0
KCO2 041643Z 26004KT 34/16 A3004 RMK A01 T03420162  RH  034%=      5-min Rain = 0
KCO2 041644Z 30008KT 34/16 A3004 RMK A01 T03410162  RH  035%=      5-min Rain = 0
KCO2 041645Z 29005KT 34/16 A3004 RMK A01 T03390161  RH  035%=      5-min Rain = 0
KCO2 041646Z 29004KT 34/17 A3004 RMK A01 T03420168  RH  035%=      5-min Rain = 0
KCO2 041647Z 34004KT 35/17 A3004 RMK A01 T03470167  RH  034%=      5-min Rain = 0
KCO2 041648Z 36002KT 35/17 A3004 RMK A01 T03480165  RH  034%=      5-min Rain = 0
KCO2 041649Z 31002KT 35/17 A3004 RMK A01 T03470166  RH  034%=      5-min Rain = 0
KCO2 041650Z 29007KT 35/17 A3004 RMK A01 T03500167  RH  034%=      5-min Rain = 0
KCO2 041651Z 29005KT 35/16 A3004 RMK A01 T03510164  RH  033%=      5-min Rain = 0
KCO2 041652Z 30005KT 35/16 A3004 RMK A01 T03500160  RH  032%=      5-min Rain = 0
KCO2 041653Z 29005KT 35/16 A3004 RMK A01 T03460160  RH  033%=      5-min Rain = 0
KCO2 041654Z 26003KT 34/16 A3004 RMK A01 T03430159  RH  033%=      5-min Rain = 0
KCO2 041655Z 29004KT 34/16 A3004 RMK A01 T03440162  RH  034%=      5-min Rain = 0
KCO2 041656Z 33001KT 35/16 A3004 RMK A01 T03460160  RH  033%=      5-min Rain = 0
KCO2 041657Z 26002KT 35/16 A3004 RMK A01 T03460161  RH  033%=      5-min Rain = 0
KCO2 041658Z 30003KT 35/16 A3004 RMK A01 T03460162  RH  034%=      5-min Rain = 0
KCO2 041659Z 31004KT 35/16 A3003 RMK A01 T03450160  RH  033%=      5-min Rain = 0
KCO2 041700Z 33005KT 34/16 A3003 RMK A01 T03430157  RH  033%=      5-min Rain = 0
KCO2 041701Z 31003KT 34/16 A3003 RMK A01 T03430155  RH  033%=      5-min Rain = 0
KCO2 041702Z 27005G11KT 35/16 A3003 RMK A01 T03450158  RH  033%=      5-min Rain = 0
KCO2 041703Z 26009KT 35/15 A3004 RMK A01 T03470153  RH  031%=      5-min Rain = 0
KCO2 041704Z 27008KT 35/15 A3004 RMK A01 T03480151  RH  031%=      5-min Rain = 0
KCO2 041705Z 27007KT 35/15 A3004 RMK A01 T03480151  RH  031%=      5-min Rain = 0
KCO2 041706Z 26006KT 35/15 A3004 RMK A01 T03460149  RH  031%=      5-min Rain = 0
KCO2 041707Z 26006KT 35/15 A3003 RMK A01 T03450148  RH  031%=      5-min Rain = 0
KCO2 041708Z 23005KT 34/15 A3003 RMK A01 T03440146  RH  031%=      5-min Rain = 0
KCO2 041709Z 26004KT 34/15 A3003 RMK A01 T03430149  RH  031%=      5-min Rain = 0
KCO2 041710Z 25003KT 35/15 A3003 RMK A01 T03450151  RH  031%=      5-min Rain = 0
KCO2 041711Z 23006KT 35/15 A3003 RMK A01 T03470153  RH  031%=      5-min Rain = 0
KCO2 041712Z 21003KT 35/15 A3003 RMK A01 T03480153  RH  031%=      5-min Rain = 0
KCO2 041713Z 18001KT 35/15 A3003 RMK A01 T03470152  RH  031%=      5-min Rain = 0
KCO2 041714Z 27002KT 35/15 A3003 RMK A01 T03480154  RH  031%=      5-min Rain = 0
KCO2 041715Z 30001KT 35/15 A3003 RMK A01 T03480151  RH  031%=      5-min Rain = 0
KCO2 041716Z 24006KT 35/16 A3003 RMK A01 T03500155  RH  031%=      5-min Rain = 0
KCO2 041717Z 24006KT 35/15 A3003 RMK A01 T03520148  RH  030%=      5-min Rain = 0
KCO2 041718Z 25004KT 35/15 A3003 RMK A01 T03480149  RH  030%=      5-min Rain = 0
KCO2 041719Z 32003G8KT 35/15 A3003 RMK A01 T03470150  RH  031%=      5-min Rain = 0
KCO2 041720Z 34006KT 35/15 A3003 RMK A01 T03500150  RH  030%=      5-min Rain = 0
KCO2 041721Z 35007KT 35/15 A3003 RMK A01 T03520151  RH  030%=      5-min Rain = 0
KCO2 041722Z 33008KT 36/15 A3003 RMK A01 T03550150  RH  029%=      5-min Rain = 0
KCO2 041723Z 35006KT 36/15 A3003 RMK A01 T03560146  RH  029%=      5-min Rain = 0
KCO2 041724Z 03003KT 35/14 A3003 RMK A01 T03540141  RH  028%=      5-min Rain = 0
KCO2 041725Z 07003KT 35/14 A3003 RMK A01 T03500143  RH  029%=      5-min Rain = 0
KCO2 041726Z 13003KT 35/14 A3003 RMK A01 T03490143  RH  029%=      5-min Rain = 0
KCO2 041727Z 29007KT 35/15 A3003 RMK A01 T03530149  RH  030%=      5-min Rain = 0
KCO2 041728Z 28007KT 36/15 A3003 RMK A01 T03560145  RH  028%=      5-min Rain = 0
KCO2 041729Z 29007KT 36/15 A3003 RMK A01 T03580146  RH  028%=      5-min Rain = 0
KCO2 041730Z 31006KT 36/14 A3003 RMK A01 T03580144  RH  028%=      5-min Rain = 0
KCO2 041731Z 33005KT 36/14 A3003 RMK A01 T03560143  RH  028%=      5-min Rain = 0
KCO2 041732Z 32005KT 36/15 A3003 RMK A01 T03550145  RH  028%=      5-min Rain = 0
KCO2 041733Z 32004KT 36/14 A3003 RMK A01 T03560141  RH  028%=      5-min Rain = 0
KCO2 041734Z 31005KT 36/14 A3003 RMK A01 T03560144  RH  028%=      5-min Rain = 0
KCO2 041735Z 31007KT 36/14 A3003 RMK A01 T03570141  RH  028%=      5-min Rain = 0
KCO2 041736Z 30004KT 36/14 A3003 RMK A01 T03570135  RH  027%=      5-min Rain = 0
KCO2 041737Z 32005KT 36/14 A3003 RMK A01 T03550138  RH  027%=      5-min Rain = 0
KCO2 041738Z 32004KT 36/13 A3003 RMK A01 T03550134  RH  027%=      5-min Rain = 0
KCO2 041739Z 32006KT 36/13 A3003 RMK A01 T03560132  RH  026%=      5-min Rain = 0
KCO2 041740Z 34004KT 36/14 A3003 RMK A01 T03580138  RH  027%=      5-min Rain = 0
KCO2 041741Z 04003KT 36/14 A3003 RMK A01 T03580139  RH  027%=      5-min Rain = 0
KCO2 041742Z 07003KT 36/14 A3003 RMK A01 T03570138  RH  027%=      5-min Rain = 0
KCO2 041743Z 09003KT 35/13 A3003 RMK A01 T03540133  RH  026%=      5-min Rain = 0
KCO2 041744Z 01004G9KT 35/14 A3003 RMK A01 T03540139  RH  028%=      5-min Rain = 0
KCO2 041745Z 00007KT 36/14 A3003 RMK A01 T03580138  RH  027%=      5-min Rain = 0
KCO2 041746Z 02005KT 36/13 A3003 RMK A01 T03600134  RH  026%=      5-min Rain = 0
KCO2 041747Z 03005KT 36/13 A3003 RMK A01 T03600134  RH  026%=      5-min Rain = 0
KCO2 041748Z 05005KT 36/14 A3003 RMK A01 T03590139  RH  027%=      5-min Rain = 0
KCO2 041749Z 05004KT 36/14 A3003 RMK A01 T03590137  RH  027%=      5-min Rain = 0
KCO2 041750Z 05005KT 36/14 A3003 RMK A01 T03560140  RH  027%=      5-min Rain = 0
KCO2 041751Z 06006KT 36/14 A3003 RMK A01 T03580139  RH  027%=      5-min Rain = 0
KCO2 041752Z 04003KT 36/13 A3003 RMK A01 T03570134  RH  026%=      5-min Rain = 0
KCO2 041753Z 10004KT 36/14 A3003 RMK A01 T03560140  RH  027%=      5-min Rain = 0
KCO2 041754Z 10004KT 36/14 A3003 RMK A01 T03590138  RH  027%=      5-min Rain = 0
KCO2 041755Z 10005KT 36/14 A3003 RMK A01 T03620142  RH  027%=      5-min Rain = 0
KCO2 041756Z 10006KT 37/14 A3003 RMK A01 T03650144  RH  027%=      5-min Rain = 0
KCO2 041757Z 06005KT 37/14 A3003 RMK A01 T03680142  RH  026%=      5-min Rain = 0
KCO2 041758Z 03003KT 37/14 A3003 RMK A01 T03690136  RH  025%=      5-min Rain = 0
KCO2 041759Z 07002KT 37/14 A3003 RMK A01 T03670135  RH  025%=      5-min Rain = 0
KCO2 041800Z 10001KT 37/13 A3003 RMK A01 T03670131  RH  024%=      5-min Rain = 0
KCO2 041801Z 07003KT 37/13 A3003 RMK A01 T03660129  RH  024%=      5-min Rain = 0
KCO2 041802Z 06003KT 37/13 A3003 RMK A01 T03650129  RH  024%=      5-min Rain = 0
KCO2 041803Z 07002KT 36/12 A3003 RMK A01 T03620124  RH  024%=      5-min Rain = 0
KCO2 041804Z 11000KT 36/12 A3002 RMK A01 T03610122  RH  024%=      5-min Rain = 0
KCO2 041805Z 07002KT 36/13 A3002 RMK A01 T03610129  RH  025%=      5-min Rain = 0
KCO2 041806Z 09006KT 37/14 A3002 RMK A01 T03660141  RH  026%=      5-min Rain = 0
KCO2 041807Z 09007KT 37/14 A3002 RMK A01 T03690136  RH  025%=      5-min Rain = 0
KCO2 041808Z 08009KT 37/14 A3002 RMK A01 T03680135  RH  025%=      5-min Rain = 0
KCO2 041809Z 09007KT 37/14 A3002 RMK A01 T03670136  RH  025%=      5-min Rain = 0
KCO2 041810Z 09006KT 37/14 A3002 RMK A01 T03660138  RH  026%=      5-min Rain = 0
KCO2 041811Z 09005KT 37/14 A3002 RMK A01 T03670136  RH  025%=      5-min Rain = 0
KCO2 041812Z 08004KT 37/14 A3002 RMK A01 T03670135  RH  025%=      5-min Rain = 0
KCO2 041813Z 12001KT 37/13 A3002 RMK A01 T03660128  RH  024%=      5-min Rain = 0
KCO2 041814Z 08004KT 37/13 A3002 RMK A01 T03650133  RH  025%=      5-min Rain = 0
KCO2 041815Z 08004G10KT 37/14 A3002 RMK A01 T03680141  RH  026%=      5-min Rain = 0
KCO2 041816Z 09007KT 37/14 A3002 RMK A01 T03700136  RH  025%=      5-min Rain = 0
KCO2 041817Z 08005KT 37/13 A3002 RMK A01 T03700132  RH  024%=      5-min Rain = 0
KCO2 041818Z 06007KT 37/14 A3002 RMK A01 T03690140  RH  026%=      5-min Rain = 0
KCO2 041819Z 05009G14KT 37/14 A3002 RMK A01 T03670136  RH  025%=      5-min Rain = 0
KCO2 041820Z 05011KT 37/14 A3002 RMK A01 T03650139  RH  026%=      5-min Rain = 0
KCO2 041821Z 04007KT 37/14 A3001 RMK A01 T03670136  RH  025%=      5-min Rain = 0
KCO2 041822Z 07006KT 37/14 A3001 RMK A01 T03660137  RH  026%=      5-min Rain = 0
KCO2 041823Z 06010KT 37/14 A3001 RMK A01 T03650137  RH  026%=      5-min Rain = 0
KCO2 041824Z 06007KT 36/14 A3001 RMK A01 T03640139  RH  026%=      5-min Rain = 0
KCO2 041825Z 06007KT 36/14 A3001 RMK A01 T03640138  RH  026%=      5-min Rain = 0
KCO2 041826Z 06006KT 36/14 A3001 RMK A01 T03640137  RH  026%=      5-min Rain = 0
KCO2 041827Z 06003KT 36/13 A3001 RMK A01 T03610133  RH  026%=      5-min Rain = 0
KCO2 041828Z 08003KT 36/14 A3001 RMK A01 T03620141  RH  027%=      5-min Rain = 0
KCO2 041829Z 07005KT 37/14 A3001 RMK A01 T03650139  RH  026%=      5-min Rain = 0
KCO2 041830Z 09004KT 37/14 A3001 RMK A01 T03670142  RH  026%=      5-min Rain = 0
KCO2 041831Z 05005KT 37/14 A3001 RMK A01 T03700141  RH  026%=      5-min Rain = 0
KCO2 041832Z 05005KT 37/14 A3001 RMK A01 T03710140  RH  025%=      5-min Rain = 0
KCO2 041833Z 12003KT 37/14 A3001 RMK A01 T03720140  RH  025%=      5-min Rain = 0
KCO2 041834Z 14004KT 37/14 A3001 RMK A01 T03730137  RH  025%=      5-min Rain = 0
KCO2 041835Z 13005KT 37/14 A3001 RMK A01 T03720139  RH  025%=      5-min Rain = 0
KCO2 041836Z 09005KT 37/14 A3001 RMK A01 T03720140  RH  025%=      5-min Rain = 0
KCO2 041837Z 12007KT 37/13 A3001 RMK A01 T03740134  RH  024%=      5-min Rain = 0
KCO2 041838Z 13002KT 38/14 A3001 RMK A01 T03750135  RH  024%=      5-min Rain = 0
KCO2 041839Z 15002KT 38/13 A3001 RMK A01 T03770131  RH  023%=      5-min Rain = 0
KCO2 041840Z 11004KT 38/14 A3001 RMK A01 T03770135  RH  024%=      5-min Rain = 0
KCO2 041841Z 14004KT 38/14 A3001 RMK A01 T03750138  RH  024%=      5-min Rain = 0
KCO2 041842Z 17004KT 37/14 A3001 RMK A01 T03740138  RH  025%=      5-min Rain = 0
KCO2 041843Z 17008KT 38/13 A3001 RMK A01 T03760131  RH  023%=      5-min Rain = 0
KCO2 041844Z 17007KT 38/13 A3001 RMK A01 T03770130  RH  023%=      5-min Rain = 0
KCO2 041845Z 17007KT 38/13 A3001 RMK A01 T03760130  RH  023%=      5-min Rain = 0
KCO2 041846Z 18006KT 37/12 A3001 RMK A01 T03740122  RH  022%=      5-min Rain = 0
KCO2 041847Z 17005KT 37/12 A3001 RMK A01 T03700122  RH  023%=      5-min Rain = 0
KCO2 041848Z 13008KT 37/13 A3001 RMK A01 T03700129  RH  024%=      5-min Rain = 0
KCO2 041849Z 12007KT 37/13 A3001 RMK A01 T03740130  RH  023%=      5-min Rain = 0
KCO2 041850Z 11007KT 38/13 A3001 RMK A01 T03770129  RH  023%=      5-min Rain = 0
KCO2 041851Z 12003KT 37/13 A3001 RMK A01 T03740129  RH  023%=      5-min Rain = 0
KCO2 041852Z 12007KT 37/13 A3001 RMK A01 T03740126  RH  023%=      5-min Rain = 0
KCO2 041853Z 13008KT 38/13 A30 RMK A01 T03760126  RH  023%=      5-min Rain = 0
KCO2 041854Z 11006KT 38/13 A30 RMK A01 T03760128  RH  023%=      5-min Rain = 0
KCO2 041855Z 09005KT 37/13 A30 RMK A01 T03740126  RH  023%=      5-min Rain = 0
KCO2 041856Z 09006KT 37/13 A30 RMK A01 T03720130  RH  024%=      5-min Rain = 0
KCO2 041857Z 08005KT 37/13 A30 RMK A01 T03720130  RH  024%=      5-min Rain = 0
KCO2 041858Z 06006KT 37/13 A30 RMK A01 T03710127  RH  023%=      5-min Rain = 0
KCO2 041859Z 10004KT 37/13 A30 RMK A01 T03690126  RH  023%=      5-min Rain = 0
KCO2 041900Z 11006KT 37/13 A30 RMK A01 T03700129  RH  024%=      5-min Rain = 0
KCO2 041901Z 14004KT 37/13 A30 RMK A01 T03720129  RH  023%=      5-min Rain = 0
KCO2 041902Z 11004KT 38/13 A30 RMK A01 T03750130  RH  023%=      5-min Rain = 0
KCO2 041903Z 15004KT 38/13 A30 RMK A01 T03760132  RH  023%=      5-min Rain = 0
KCO2 041904Z 17004KT 38/13 A30 RMK A01 T03780128  RH  023%=      5-min Rain = 0
KCO2 041905Z 19007KT 38/13 A30 RMK A01 T03780130  RH  023%=      5-min Rain = 0
KCO2 041906Z 15007G12KT 38/13 A30 RMK A01 T03790131  RH  023%=      5-min Rain = 0
KCO2 041907Z 15010KT 38/13 A30 RMK A01 T03790128  RH  022%=      5-min Rain = 0
KCO2 041908Z 14007KT 38/13 A30 RMK A01 T03760126  RH  022%=      5-min Rain = 0
KCO2 041909Z 13004KT 37/12 A30 RMK A01 T03720121  RH  022%=      5-min Rain = 0
KCO2 041910Z 13008KT 37/12 A30 RMK A01 T03690124  RH  023%=      5-min Rain = 0
KCO2 041911Z 14010KT 37/12 A30 RMK A01 T03700124  RH  023%=      5-min Rain = 0
KCO2 041912Z 15008KT 38/13 A30 RMK A01 T03760127  RH  023%=      5-min Rain = 0
KCO2 041913Z 17009KT 38/13 A2999 RMK A01 T03790126  RH  022%=      5-min Rain = 0
KCO2 041914Z 19009KT 38/13 A2999 RMK A01 T03820129  RH  022%=      5-min Rain = 0
KCO2 041915Z 19007KT 38/13 A2999 RMK A01 T03840128  RH  022%=      5-min Rain = 0
KCO2 041916Z 19006KT 38/13 A2999 RMK A01 T03830125  RH  022%=      5-min Rain = 0
KCO2 041917Z 17011KT 38/13 A2999 RMK A01 T03790127  RH  022%=      5-min Rain = 0
KCO2 041918Z 14012KT 38/13 A2999 RMK A01 T03790125  RH  022%=      5-min Rain = 0
KCO2 041919Z 16010KT 38/13 A2999 RMK A01 T03790126  RH  022%=      5-min Rain = 0
KCO2 041920Z 16007KT 38/12 A2999 RMK A01 T03770124  RH  022%=      5-min Rain = 0
KCO2 041921Z 17005KT 38/13 A2999 RMK A01 T03750126  RH  023%=      5-min Rain = 0
KCO2 041922Z 17007G12KT 38/13 A2999 RMK A01 T03750126  RH  023%=      5-min Rain = 0
KCO2 041923Z 15012KT 38/13 A2999 RMK A01 T03760127  RH  023%=      5-min Rain = 0
KCO2 041924Z 15009KT 38/13 A2999 RMK A01 T03770127  RH  022%=      5-min Rain = 0
KCO2 041925Z 17010KT 38/13 A2999 RMK A01 T03760128  RH  023%=      5-min Rain = 0
KCO2 041926Z 16008KT 38/13 A2999 RMK A01 T03760127  RH  023%=      5-min Rain = 0
KCO2 041927Z 14006KT 37/13 A2999 RMK A01 T03740127  RH  023%=      5-min Rain = 0
KCO2 041928Z 16006KT 37/13 A2999 RMK A01 T03730126  RH  023%=      5-min Rain = 0
KCO2 041929Z 16006G12KT 37/13 A2999 RMK A01 T03730128  RH  023%=      5-min Rain = 0
KCO2 041930Z 15010KT 37/13 A2999 RMK A01 T03740127  RH  023%=      5-min Rain = 0
KCO2 041931Z 16008KT 38/13 A2999 RMK A01 T03770128  RH  023%=      5-min Rain = 0
KCO2 041932Z 17008KT 38/13 A2999 RMK A01 T03790127  RH  022%=      5-min Rain = 0
KCO2 041933Z 17009KT 38/12 A2999 RMK A01 T03780123  RH  022%=      5-min Rain = 0
KCO2 041934Z 18007KT 38/12 A2999 RMK A01 T03750123  RH  022%=      5-min Rain = 0
KCO2 041935Z 18005KT 38/12 A2999 RMK A01 T03750124  RH  022%=      5-min Rain = 0
KCO2 041936Z 18003KT 37/12 A2999 RMK A01 T03740123  RH  022%=      5-min Rain = 0
KCO2 041937Z 21004KT 38/13 A2999 RMK A01 T03760130  RH  023%=      5-min Rain = 0
KCO2 041938Z 21003KT 38/13 A2999 RMK A01 T03800125  RH  022%=      5-min Rain = 0
KCO2 041939Z 26005KT 38/12 A2998 RMK A01 T03790123  RH  022%=      5-min Rain = 0
KCO2 041940Z 22004KT 37/12 A2998 RMK A01 T03740124  RH  022%=      5-min Rain = 0
KCO2 041941Z 18007KT 37/13 A2998 RMK A01 T03740125  RH  022%=      5-min Rain = 0
KCO2 041942Z 19007KT 38/12 A2998 RMK A01 T03790124  RH  022%=      5-min Rain = 0
KCO2 041943Z 18008KT 38/12 A2998 RMK A01 T03800119  RH  021%=      5-min Rain = 0
KCO2 041944Z 20006KT 38/12 A2998 RMK A01 T03780118  RH  021%=      5-min Rain = 0
KCO2 041945Z 20006KT 38/12 A2998 RMK A01 T03760119  RH  021%=      5-min Rain = 0
KCO2 041946Z 22008KT 38/12 A2998 RMK A01 T03760120  RH  022%=      5-min Rain = 0
KCO2 041947Z 21007KT 38/12 A2998 RMK A01 T03750121  RH  022%=      5-min Rain = 0
KCO2 041948Z 23005KT 37/12 A2998 RMK A01 T03730119  RH  022%=      5-min Rain = 0
KCO2 041949Z 22005KT 37/12 A2998 RMK A01 T03710122  RH  022%=      5-min Rain = 0
KCO2 041950Z 21007KT 37/12 A2998 RMK A01 T03730124  RH  023%=      5-min Rain = 0
KCO2 041951Z 21005KT 38/12 A2998 RMK A01 T03750121  RH  022%=      5-min Rain = 0
KCO2 041952Z 20002KT 37/12 A2998 RMK A01 T03730119  RH  022%=      5-min Rain = 0
KCO2 041953Z 10001KT 37/12 A2998 RMK A01 T03700121  RH  022%=      5-min Rain = 0
KCO2 041954Z 12004KT 37/12 A2998 RMK A01 T03720121  RH  022%=      5-min Rain = 0
KCO2 041955Z 11003KT 37/12 A2998 RMK A01 T03720117  RH  022%=      5-min Rain = 0
KCO2 041956Z 10005KT 37/12 A2998 RMK A01 T03710118  RH  022%=      5-min Rain = 0
KCO2 041957Z 10005KT 37/12 A2998 RMK A01 T03730121  RH  022%=      5-min Rain = 0
KCO2 041958Z 12005KT 38/12 A2998 RMK A01 T03750118  RH  021%=      5-min Rain = 0
KCO2 041959Z 15007KT 38/12 A2998 RMK A01 T03760119  RH  021%=      5-min Rain = 0
KCO2 042000Z 15008KT 38/12 A2998 RMK A01 T03780116  RH  021%=      5-min Rain = 0
KCO2 042001Z 17009KT 38/12 A2998 RMK A01 T03790118  RH  021%=      5-min Rain = 0
KCO2 042002Z 18008KT 38/12 A2998 RMK A01 T03830118  RH  021%=      5-min Rain = 0
KCO2 042003Z 18006KT 38/11 A2998 RMK A01 T03830111  RH  020%=      5-min Rain = 0
KCO2 042004Z 18007KT 38/11 A2998 RMK A01 T03810112  RH  020%=      5-min Rain = 0
KCO2 042005Z 15009KT 38/11 A2998 RMK A01 T03810112  RH  020%=      5-min Rain = 0
KCO2 042006Z 12006KT 38/11 A2998 RMK A01 T03810112  RH  020%=      5-min Rain = 0
KCO2 042007Z 11011KT 38/11 A2998 RMK A01 T03820112  RH  020%=      5-min Rain = 0
KCO2 042008Z 13010KT 38/11 A2998 RMK A01 T03830111  RH  020%=      5-min Rain = 0
KCO2 042009Z 11008KT 38/11 A2998 RMK A01 T03820110  RH  020%=      5-min Rain = 0
KCO2 042010Z 12008KT 38/12 A2998 RMK A01 T03810115  RH  020%=      5-min Rain = 0
KCO2 042011Z 10006KT 38/12 A2998 RMK A01 T03800116  RH  021%=      5-min Rain = 0
KCO2 042012Z 12008KT 38/12 A2998 RMK A01 T03790122  RH  022%=      5-min Rain = 0
KCO2 042013Z 13007KT 38/13 A2998 RMK A01 T03820125  RH  022%=      5-min Rain = 0
KCO2 042014Z 15009KT 38/12 A2998 RMK A01 T03830121  RH  021%=      5-min Rain = 0
KCO2 042015Z 16007KT 38/12 A2998 RMK A01 T03810122  RH  021%=      5-min Rain = 0
KCO2 042016Z 20007KT 38/12 A2998 RMK A01 T03800115  RH  020%=      5-min Rain = 0
KCO2 042017Z 23005KT 38/10 A2998 RMK A01 T03800103  RH  019%=      5-min Rain = 0
KCO2 042018Z 24005KT 38/11 A2998 RMK A01 T03790107  RH  020%=      5-min Rain = 0
KCO2 042019Z 21004KT 38/11 A2997 RMK A01 T03790109  RH  020%=      5-min Rain = 0
KCO2 042020Z 15007KT 38/11 A2998 RMK A01 T03800112  RH  020%=      5-min Rain = 0
KCO2 042021Z 14008KT 38/12 A2997 RMK A01 T03800119  RH  021%=      5-min Rain = 0
KCO2 042022Z 17009KT 38/12 A2997 RMK A01 T03790121  RH  021%=      5-min Rain = 0
KCO2 042023Z 20007KT 38/12 A2997 RMK A01 T03810120  RH  021%=      5-min Rain = 0
KCO2 042024Z 21005KT 38/12 A2997 RMK A01 T03820122  RH  021%=      5-min Rain = 0
KCO2 042025Z 18008KT 38/12 A2997 RMK A01 T03830117  RH  020%=      5-min Rain = 0
KCO2 042026Z 16010KT 38/12 A2997 RMK A01 T03820118  RH  021%=      5-min Rain = 0
KCO2 042027Z 15007KT 38/12 A2997 RMK A01 T03810117  RH  021%=      5-min Rain = 0
KCO2 042028Z 18005KT 38/12 A2997 RMK A01 T03790117  RH  021%=      5-min Rain = 0
KCO2 042029Z 16003KT 38/12 A2997 RMK A01 T03780116  RH  021%=      5-min Rain = 0
KCO2 042030Z 17006G12KT 38/12 A2997 RMK A01 T03770118  RH  021%=      5-min Rain = 0
KCO2 042031Z 18008KT 38/12 A2997 RMK A01 T03770119  RH  021%=      5-min Rain = 0
KCO2 042032Z 20007KT 38/12 A2997 RMK A01 T03760117  RH  021%=      5-min Rain = 0
KCO2 042033Z 21006KT 37/11 A2997 RMK A01 T03740114  RH  021%=      5-min Rain = 0
KCO2 042034Z 21006KT 37/12 A2997 RMK A01 T03740116  RH  021%=      5-min Rain = 0
KCO2 042035Z 20005KT 38/12 A2997 RMK A01 T03790118  RH  021%=      5-min Rain = 0
KCO2 042036Z 24004KT 38/12 A2997 RMK A01 T03810116  RH  020%=      5-min Rain = 0
KCO2 042037Z 28003KT 38/12 A2997 RMK A01 T03840121  RH  021%=      5-min Rain = 0
KCO2 042038Z 29004KT 39/12 A2997 RMK A01 T03890119  RH  020%=      5-min Rain = 0
KCO2 042039Z 29003KT 39/11 A2997 RMK A01 T03880108  RH  019%=      5-min Rain = 0
KCO2 042040Z 28005KT 38/11 A2997 RMK A01 T03840110  RH  019%=      5-min Rain = 0
KCO2 042041Z 27004KT 38/11 A2997 RMK A01 T03820108  RH  019%=      5-min Rain = 0
KCO2 042042Z 26004KT 38/11 A2997 RMK A01 T03830108  RH  019%=      5-min Rain = 0
KCO2 042043Z 22004KT 38/11 A2997 RMK A01 T03840108  RH  019%=      5-min Rain = 0
KCO2 042044Z 16007KT 38/12 A2997 RMK A01 T03830115  RH  020%=      5-min Rain = 0
KCO2 042045Z 15008KT 38/13 A2997 RMK A01 T03830127  RH  022%=      5-min Rain = 0
KCO2 042046Z 16011KT 39/13 A2997 RMK A01 T03850126  RH  021%=      5-min Rain = 0
KCO2 042047Z 16009KT 38/13 A2996 RMK A01 T03840126  RH  022%=      5-min Rain = 0
KCO2 042048Z 15010KT 39/13 A2996 RMK A01 T03850128  RH  022%=      5-min Rain = 0
KCO2 042049Z 16011KT 39/13 A2996 RMK A01 T03860127  RH  021%=      5-min Rain = 0
KCO2 042050Z 17009KT 39/12 A2996 RMK A01 T03850124  RH  021%=      5-min Rain = 0
KCO2 042051Z 18008KT 38/13 A2996 RMK A01 T03830125  RH  021%=      5-min Rain = 0
KCO2 042052Z 21009KT 38/13 A2996 RMK A01 T03820125  RH  022%=      5-min Rain = 0
KCO2 042053Z 19009KT 38/12 A2996 RMK A01 T03840124  RH  021%=      5-min Rain = 0
KCO2 042054Z 16011KT 38/12 A2996 RMK A01 T03840123  RH  021%=      5-min Rain = 0
KCO2 042055Z 18008KT 38/12 A2996 RMK A01 T03820122  RH  021%=      5-min Rain = 0
KCO2 042056Z 17009KT 38/12 A2996 RMK A01 T03810123  RH  021%=      5-min Rain = 0
KCO2 042057Z 18008KT 38/12 A2996 RMK A01 T03790122  RH  022%=      5-min Rain = 0
KCO2 042058Z 18007KT 38/12 A2996 RMK A01 T03780120  RH  021%=      5-min Rain = 0
KCO2 042059Z 18007KT 38/12 A2996 RMK A01 T03760120  RH  022%=      5-min Rain = 0
KCO2 042100Z 19009KT 37/12 A2996 RMK A01 T03740123  RH  022%=      5-min Rain = 0
KCO2 042101Z 21008KT 37/12 A2996 RMK A01 T03730120  RH  022%=      5-min Rain = 0
KCO2 042102Z 14009KT 37/12 A2996 RMK A01 T03710124  RH  023%=      5-min Rain = 0
KCO2 042103Z 12008KT 38/13 A2996 RMK A01 T03770125  RH  022%=      5-min Rain = 0
KCO2 042104Z 14002KT 38/12 A2996 RMK A01 T03770120  RH  021%=      5-min Rain = 0
KCO2 042105Z 15002KT 38/12 A2995 RMK A01 T03760122  RH  022%=      5-min Rain = 0
KCO2 042106Z 16003KT 38/12 A2995 RMK A01 T03780124  RH  022%=      5-min Rain = 0
KCO2 042107Z 15008G13KT 38/12 A2995 RMK A01 T03790124  RH  022%=      5-min Rain = 0
KCO2 042108Z 16010KT 38/12 A2995 RMK A01 T03800119  RH  021%=      5-min Rain = 0
KCO2 042109Z 15009KT 38/12 A2995 RMK A01 T03800120  RH  021%=      5-min Rain = 0
KCO2 042110Z 15008KT 38/12 A2995 RMK A01 T03800119  RH  021%=      5-min Rain = 0
KCO2 042111Z 15004KT 38/11 A2995 RMK A01 T03790114  RH  020%=      5-min Rain = 0
KCO2 042112Z 17001KT 38/11 A2995 RMK A01 T03760113  RH  021%=      5-min Rain = 0
KCO2 042113Z 16004KT 38/12 A2995 RMK A01 T03770117  RH  021%=      5-min Rain = 0
KCO2 042114Z 20005KT 38/12 A2995 RMK A01 T03790118  RH  021%=      5-min Rain = 0
KCO2 042115Z 17005KT 38/12 A2995 RMK A01 T03790119  RH  021%=      5-min Rain = 0
KCO2 042116Z 15006KT 38/12 A2995 RMK A01 T03800119  RH  021%=      5-min Rain = 0
KCO2 042117Z 13004KT 38/11 A2995 RMK A01 T03820112  RH  020%=      5-min Rain = 0
KCO2 042118Z 13005KT 38/11 A2995 RMK A01 T03820112  RH  020%=      5-min Rain = 0
KCO2 042119Z 12003KT 38/11 A2995 RMK A01 T03820114  RH  020%=      5-min Rain = 0
KCO2 042120Z 09003KT 38/11 A2995 RMK A01 T03820114  RH  020%=      5-min Rain = 0
KCO2 042121Z 08003KT 38/12 A2995 RMK A01 T03820118  RH  021%=      5-min Rain = 0
KCO2 042122Z 11003KT 38/12 A2995 RMK A01 T03810117  RH  021%=      5-min Rain = 0
KCO2 042123Z 16005KT 38/13 A2995 RMK A01 T03790128  RH  022%=      5-min Rain = 0
KCO2 042124Z 16003KT 38/13 A2995 RMK A01 T03800133  RH  023%=      5-min Rain = 0
KCO2 042125Z 18003KT 38/14 A2995 RMK A01 T03790136  RH  024%=      5-min Rain = 0
KCO2 042126Z 18001KT 38/14 A2994 RMK A01 T03790135  RH  023%=      5-min Rain = 0
KCO2 042127Z 22002KT 38/14 A2994 RMK A01 T03810135  RH  023%=      5-min Rain = 0
KCO2 042128Z 22003KT 38/13 A2994 RMK A01 T03810134  RH  023%=      5-min Rain = 0
KCO2 042129Z 23003KT 38/13 A2994 RMK A01 T03780131  RH  023%=      5-min Rain = 0
KCO2 042130Z 25001KT 38/14 A2994 RMK A01 T03760136  RH  024%=      5-min Rain = 0
KCO2 042131Z 28001KT 38/14 A2994 RMK A01 T03770138  RH  024%=      5-min Rain = 0
KCO2 042132Z 27001KT 38/14 A2994 RMK A01 T03810138  RH  024%=      5-min Rain = 0
KCO2 042133Z 33002KT 38/14 A2994 RMK A01 T03820136  RH  023%=      5-min Rain = 0
KCO2 042134Z 01001KT 38/14 A2994 RMK A01 T03820135  RH  023%=      5-min Rain = 0
KCO2 042135Z 11002KT 38/14 A2994 RMK A01 T03820137  RH  023%=      5-min Rain = 0
KCO2 042136Z 11005KT 38/14 A2994 RMK A01 T03810135  RH  023%=      5-min Rain = 0
KCO2 042137Z 11005KT 38/14 A2994 RMK A01 T03800138  RH  024%=      5-min Rain = 0
KCO2 042138Z 15008KT 38/14 A2994 RMK A01 T03800137  RH  024%=      5-min Rain = 0
KCO2 042139Z 15007KT 38/14 A2994 RMK A01 T03820135  RH  023%=      5-min Rain = 0
KCO2 042140Z 14008KT 39/13 A2993 RMK A01 T03850134  RH  023%=      5-min Rain = 0
KCO2 042141Z 12009KT 39/14 A2993 RMK A01 T03870141  RH  023%=      5-min Rain = 0
KCO2 042142Z 16009KT 39/14 A2993 RMK A01 T03870136  RH  023%=      5-min Rain = 0
KCO2 042143Z 16007KT 39/13 A2993 RMK A01 T03850129  RH  022%=      5-min Rain = 0
KCO2 042144Z 14006KT 38/13 A2993 RMK A01 T03840130  RH  022%=      5-min Rain = 0
KCO2 042145Z 14003KT 38/13 A2993 RMK A01 T03810125  RH  022%=      5-min Rain = 0
KCO2 042146Z 13003KT 38/13 A2993 RMK A01 T03790128  RH  022%=      5-min Rain = 0
KCO2 042147Z 14003G8KT 38/13 A2993 RMK A01 T03780134  RH  023%=      5-min Rain = 0
KCO2 042148Z 15006KT 38/14 A2993 RMK A01 T03770136  RH  024%=      5-min Rain = 0
KCO2 042149Z 18009KT 38/14 A2993 RMK A01 T03770139  RH  024%=      5-min Rain = 0
KCO2 042150Z 18012KT 38/13 A2993 RMK A01 T03780134  RH  023%=      5-min Rain = 0
KCO2 042151Z 19009KT 38/13 A2993 RMK A01 T03770134  RH  024%=      5-min Rain = 0
KCO2 042152Z 18007KT 38/13 A2993 RMK A01 T03780134  RH  023%=      5-min Rain = 0
KCO2 042153Z 20006KT 38/13 A2993 RMK A01 T03770134  RH  023%=      5-min Rain = 0
KCO2 042154Z 19007KT 38/14 A2993 RMK A01 T03760136  RH  024%=      5-min Rain = 0
KCO2 042155Z 19004KT 38/14 A2992 RMK A01 T03770139  RH  024%=      5-min Rain = 0
KCO2 042156Z 17003KT 38/14 A2992 RMK A01 T03790138  RH  024%=      5-min Rain = 0
KCO2 042157Z 15002KT 38/14 A2992 RMK A01 T03800137  RH  024%=      5-min Rain = 0
KCO2 042158Z 26002KT 38/14 A2992 RMK A01 T03810136  RH  023%=      5-min Rain = 0
KCO2 042159Z 24004KT 38/14 A2992 RMK A01 T03820137  RH  023%=      5-min Rain = 0
KCO2 042200Z 25005KT 39/14 A2992 RMK A01 T03850135  RH  023%=      5-min Rain = 0
KCO2 042201Z 24002KT 39/14 A2992 RMK A01 T03850135  RH  023%=      5-min Rain = 0
KCO2 042202Z 13004G10KT 39/14 A2992 RMK A01 T03850138  RH  023%=      5-min Rain = 0
KCO2 042203Z 16007KT 39/14 A2992 RMK A01 T03850141  RH  024%=      5-min Rain = 0
KCO2 042204Z 16006KT 39/14 A2992 RMK A01 T03850140  RH  023%=      5-min Rain = 0
KCO2 042205Z 15006KT 39/14 A2991 RMK A01 T03850142  RH  024%=      5-min Rain = 0
KCO2 042206Z 17010G16KT 39/14 A2991 RMK A01 T03870141  RH  023%=      5-min Rain = 0
KCO2 042207Z 18012KT 39/14 A2991 RMK A01 T03860137  RH  023%=      5-min Rain = 0
KCO2 042208Z 18011KT 38/14 A2991 RMK A01 T03830136  RH  023%=      5-min Rain = 0
KCO2 042209Z 16008KT 38/14 A2991 RMK A01 T03790135  RH  023%=      5-min Rain = 0
KCO2 042210Z 15007KT 38/14 A2991 RMK A01 T03780137  RH  024%=      5-min Rain = 0
KCO2 042211Z 16008KT 38/14 A2991 RMK A01 T03800141  RH  024%=      5-min Rain = 0
KCO2 042212Z 18010KT 38/14 A2991 RMK A01 T03840139  RH  023%=      5-min Rain = 0
KCO2 042213Z 15006KT 39/14 A2991 RMK A01 T03850135  RH  023%=      5-min Rain = 0
KCO2 042214Z 16007KT 38/14 A2991 RMK A01 T03830137  RH  023%=      5-min Rain = 0
KCO2 042215Z 15006KT 38/13 A2991 RMK A01 T03830134  RH  023%=      5-min Rain = 0
KCO2 042216Z 12005KT 38/13 A2991 RMK A01 T03810134  RH  023%=      5-min Rain = 0
KCO2 042217Z 11006KT 38/14 A2991 RMK A01 T03800138  RH  024%=      5-min Rain = 0
KCO2 042218Z 13004KT 38/14 A2991 RMK A01 T03810137  RH  023%=      5-min Rain = 0
KCO2 042219Z 15005KT 38/14 A2991 RMK A01 T03810136  RH  023%=      5-min Rain = 0
KCO2 042220Z 16005KT 38/13 A2991 RMK A01 T03810132  RH  023%=      5-min Rain = 0
KCO2 042221Z 17005KT 38/14 A2991 RMK A01 T03790136  RH  024%=      5-min Rain = 0
KCO2 042222Z 17007KT 38/14 A2991 RMK A01 T03820135  RH  023%=      5-min Rain = 0
KCO2 042223Z 18008KT 38/13 A2991 RMK A01 T03840128  RH  022%=      5-min Rain = 0
KCO2 042224Z 17008KT 38/13 A2991 RMK A01 T03820129  RH  022%=      5-min Rain = 0
KCO2 042225Z 16005KT 38/13 A2991 RMK A01 T03810128  RH  022%=      5-min Rain = 0
KCO2 042226Z 17004KT 38/13 A2991 RMK A01 T03800131  RH  023%=      5-min Rain = 0
KCO2 042227Z 17005KT 38/13 A2991 RMK A01 T03830131  RH  022%=      5-min Rain = 0
KCO2 042228Z 18005KT 38/14 A2991 RMK A01 T03830135  RH  023%=      5-min Rain = 0
KCO2 042229Z 19004KT 38/13 A2991 RMK A01 T03830134  RH  023%=      5-min Rain = 0
KCO2 042230Z 19003KT 38/13 A2991 RMK A01 T03820133  RH  023%=      5-min Rain = 0
KCO2 042231Z 22006KT 38/13 A2991 RMK A01 T03820133  RH  023%=      5-min Rain = 0
KCO2 042232Z 25003KT 38/14 A2991 RMK A01 T03800135  RH  023%=      5-min Rain = 0
KCO2 042233Z 25003KT 38/13 A2991 RMK A01 T03800134  RH  023%=      5-min Rain = 0
KCO2 042234Z 26000KT 38/13 A2991 RMK A01 T03790132  RH  023%=      5-min Rain = 0
KCO2 042235Z 17002KT 38/13 A299 RMK A01 T03780134  RH  023%=      5-min Rain = 0
KCO2 042236Z 15004KT 38/14 A299 RMK A01 T03810135  RH  023%=      5-min Rain = 0
KCO2 042237Z 15006KT 38/14 A299 RMK A01 T03830137  RH  023%=      5-min Rain = 0
KCO2 042238Z 16008KT 39/14 A299 RMK A01 T03850137  RH  023%=      5-min Rain = 0
KCO2 042239Z 16006KT 38/14 A299 RMK A01 T03840138  RH  023%=      5-min Rain = 0
KCO2 042240Z 19008KT 38/14 A299 RMK A01 T03840140  RH  024%=      5-min Rain = 0
KCO2 042241Z 17008KT 38/14 A299 RMK A01 T03840138  RH  023%=      5-min Rain = 0
KCO2 042242Z 20006KT 38/14 A299 RMK A01 T03840137  RH  023%=      5-min Rain = 0
KCO2 042243Z 21006KT 38/14 A299 RMK A01 T03840135  RH  023%=      5-min Rain = 0
KCO2 042244Z 19003KT 38/13 A299 RMK A01 T03820133  RH  023%=      5-min Rain = 0
KCO2 042245Z 19002KT 38/13 A299 RMK A01 T03810134  RH  023%=      5-min Rain = 0
KCO2 042246Z 20001KT 38/14 A299 RMK A01 T03810137  RH  023%=      5-min Rain = 0
KCO2 042247Z 24000KT 38/13 A299 RMK A01 T03820133  RH  023%=      5-min Rain = 0
KCO2 042248Z 02001KT 38/13 A299 RMK A01 T03830132  RH  023%=      5-min Rain = 0
KCO2 042249Z 06002KT 38/14 A299 RMK A01 T03830136  RH  023%=      5-min Rain = 0
KCO2 042250Z 18003KT 38/14 A299 RMK A01 T03830138  RH  023%=      5-min Rain = 0
KCO2 042251Z 19004KT 38/14 A299 RMK A01 T03830140  RH  024%=      5-min Rain = 0
KCO2 042252Z 15005KT 39/14 A299 RMK A01 T03850140  RH  023%=      5-min Rain = 0
KCO2 042253Z 15008KT 39/14 A299 RMK A01 T03850139  RH  023%=      5-min Rain = 0
KCO2 042254Z 13007KT 39/14 A299 RMK A01 T03850143  RH  024%=      5-min Rain = 0
KCO2 042255Z 14008KT 39/14 A299 RMK A01 T03870144  RH  024%=      5-min Rain = 0
KCO2 042256Z 13007KT 39/14 A299 RMK A01 T03880141  RH  023%=      5-min Rain = 0
KCO2 042257Z 12007KT 39/14 A299 RMK A01 T03880138  RH  023%=      5-min Rain = 0
KCO2 042258Z 13006KT 38/14 A299 RMK A01 T03840138  RH  023%=      5-min Rain = 0
KCO2 042259Z 14005KT 38/13 A299 RMK A01 T03800134  RH  023%=      5-min Rain = 0
KCO2 042300Z 13004KT 38/13 A299 RMK A01 T03770133  RH  023%=      5-min Rain = 0
KCO2 042301Z 14003KT 37/13 A299 RMK A01 T03740130  RH  023%=      5-min Rain = 0
KCO2 042302Z 14002KT 37/13 A299 RMK A01 T03720130  RH  024%=      5-min Rain = 0
KCO2 042303Z 09002KT 37/13 A299 RMK A01 T03700133  RH  024%=      5-min Rain = 0
KCO2 042304Z 09002KT 37/14 A2989 RMK A01 T03690136  RH  025%=      5-min Rain = 0
KCO2 042305Z 09002KT 37/13 A2989 RMK A01 T03670133  RH  025%=      5-min Rain = 0
KCO2 042306Z 08002KT 37/14 A2989 RMK A01 T03660136  RH  025%=      5-min Rain = 0
KCO2 042307Z 08002KT 37/14 A2989 RMK A01 T03650138  RH  026%=      5-min Rain = 0
KCO2 042308Z 08001KT 36/14 A2989 RMK A01 T03640136  RH  026%=      5-min Rain = 0
KCO2 042309Z 00000KT 36/13 A2989 RMK A01 T03640133  RH  025%=      5-min Rain = 0
KCO2 042310Z 00000KT 36/13 A2989 RMK A01 T03640132  RH  025%=      5-min Rain = 0
KCO2 042311Z 10000KT 37/14 A2989 RMK A01 T03650135  RH  025%=      5-min Rain = 0
KCO2 042312Z 15001KT 37/14 A2989 RMK A01 T03660137  RH  026%=      5-min Rain = 0
KCO2 042313Z 13002KT 37/14 A2989 RMK A01 T03660138  RH  026%=      5-min Rain = 0
KCO2 042314Z 15002KT 37/14 A299 RMK A01 T03660138  RH  026%=      5-min Rain = 0
KCO2 042315Z 17002KT 37/14 A299 RMK A01 T03660139  RH  026%=      5-min Rain = 0
KCO2 042316Z 18005KT 37/14 A299 RMK A01 T03650138  RH  026%=      5-min Rain = 0
KCO2 042317Z 17006KT 36/14 A299 RMK A01 T03640135  RH  025%=      5-min Rain = 0
KCO2 042318Z 17006KT 36/14 A299 RMK A01 T03640135  RH  025%=      5-min Rain = 0
KCO2 042319Z 17007KT 36/14 A299 RMK A01 T03630135  RH  026%=      5-min Rain = 0
KCO2 042320Z 18005KT 36/13 A2989 RMK A01 T03630131  RH  025%=      5-min Rain = 0
KCO2 042321Z 20002KT 36/13 A2989 RMK A01 T03630130  RH  025%=      5-min Rain = 0
KCO2 042322Z 24002KT 36/13 A2989 RMK A01 T03630130  RH  025%=      5-min Rain = 0
KCO2 042323Z 19001KT 36/13 A2989 RMK A01 T03630129  RH  025%=      5-min Rain = 0
KCO2 042324Z 17003KT 36/13 A2989 RMK A01 T03640131  RH  025%=      5-min Rain = 0
KCO2 042325Z 12003KT 36/14 A2989 RMK A01 T03640135  RH  025%=      5-min Rain = 0
KCO2 042326Z 16002KT 36/13 A2989 RMK A01 T03640134  RH  025%=      5-min Rain = 0
KCO2 042327Z 17003KT 36/14 A2989 RMK A01 T03630135  RH  026%=      5-min Rain = 0
KCO2 042328Z 15003KT 36/13 A2989 RMK A01 T03630132  RH  025%=      5-min Rain = 0
KCO2 042329Z 15002KT 36/13 A2989 RMK A01 T03630127  RH  024%=      5-min Rain = 0
KCO2 042330Z 16002KT 36/13 A2989 RMK A01 T03630127  RH  024%=      5-min Rain = 0
KCO2 042331Z 13005KT 36/14 A2989 RMK A01 T03640135  RH  025%=      5-min Rain = 0
KCO2 042332Z 11004KT 37/14 A2989 RMK A01 T03650135  RH  025%=      5-min Rain = 0
KCO2 042333Z 09003KT 37/14 A2989 RMK A01 T03670135  RH  025%=      5-min Rain = 0
KCO2 042334Z 10004KT 37/14 A2989 RMK A01 T03700139  RH  025%=      5-min Rain = 0
KCO2 042335Z 12003KT 37/14 A2988 RMK A01 T03700138  RH  025%=      5-min Rain = 0
KCO2 042336Z 13005KT 37/14 A2988 RMK A01 T03700138  RH  025%=      5-min Rain = 0
KCO2 042337Z 13006KT 37/14 A2988 RMK A01 T03710136  RH  025%=      5-min Rain = 0
KCO2 042338Z 14007KT 37/13 A2988 RMK A01 T03720132  RH  024%=      5-min Rain = 0
KCO2 042339Z 15007KT 37/13 A2988 RMK A01 T03730131  RH  024%=      5-min Rain = 0
KCO2 042340Z 14008KT 37/13 A2988 RMK A01 T03740131  RH  023%=      5-min Rain = 0
KCO2 042341Z 14007KT 38/13 A2988 RMK A01 T03760127  RH  023%=      5-min Rain = 0
KCO2 042342Z 14009KT 38/13 A2988 RMK A01 T03760126  RH  023%=      5-min Rain = 0
KCO2 042343Z 16010KT 38/13 A2988 RMK A01 T03760129  RH  023%=      5-min Rain = 0
KCO2 042344Z 15006KT 38/13 A2988 RMK A01 T03770127  RH  022%=      5-min Rain = 0
KCO2 042345Z 13005KT 38/13 A2988 RMK A01 T03780127  RH  022%=      5-min Rain = 0
KCO2 042346Z 19002KT 38/13 A2988 RMK A01 T03780128  RH  023%=      5-min Rain = 0
KCO2 042347Z 18006KT 38/13 A2988 RMK A01 T03780128  RH  023%=      5-min Rain = 0
KCO2 042348Z 14006KT 38/13 A2988 RMK A01 T03790130  RH  023%=      5-min Rain = 0
KCO2 042349Z 15005KT 38/13 A2988 RMK A01 T03800128  RH  022%=      5-min Rain = 0
KCO2 042350Z 15005KT 38/13 A2988 RMK A01 T03790129  RH  023%=      5-min Rain = 0
KCO2 042351Z 14005KT 38/13 A2988 RMK A01 T03780127  RH  022%=      5-min Rain = 0
KCO2 042352Z 14004KT 38/12 A2988 RMK A01 T03770123  RH  022%=      5-min Rain = 0
KCO2 042353Z 11004KT 38/13 A2988 RMK A01 T03760133  RH  024%=      5-min Rain = 0
KCO2 042354Z 15006KT 38/13 A2988 RMK A01 T03750128  RH  023%=      5-min Rain = 0
KCO2 042355Z 15006KT 38/13 A2988 RMK A01 T03750126  RH  023%=      5-min Rain = 0
KCO2 042356Z 13007KT 38/13 A2988 RMK A01 T03750128  RH  023%=      5-min Rain = 0
KCO2 042357Z 14006KT 38/13 A2988 RMK A01 T03750126  RH  023%=      5-min Rain = 0
KCO2 042358Z 14006KT 38/13 A2988 RMK A01 T03750129  RH  023%=      5-min Rain = 0
KCO2 042359Z 13005KT 38/13 A2988 RMK A01 T03750129  RH  023%=      5-min Rain = 0
KCO2 050000Z 14006KT 38/13 A2988 RMK A01 T03750129  RH  023%=      5-min Rain = 0
KCO2 050001Z 14005KT 38/13 A2988 RMK A01 T03750125  RH  023%=      5-min Rain = 0
KCO2 050002Z 15007KT 37/13 A2988 RMK A01 T03740125  RH  023%=      5-min Rain = 0
KCO2 050003Z 14005KT 37/12 A2988 RMK A01 T03720124  RH  023%=      5-min Rain = 0
KCO2 050004Z 14007KT 37/12 A2988 RMK A01 T03700123  RH  023%=      5-min Rain = 0
KCO2 050005Z 13006KT 37/12 A2988 RMK A01 T03690120  RH  022%=      5-min Rain = 0
KCO2 050006Z 13006KT 37/12 A2988 RMK A01 T03680124  RH  023%=      5-min Rain = 0
KCO2 050007Z 13005KT 37/12 A2988 RMK A01 T03690124  RH  023%=      5-min Rain = 0
KCO2 050008Z 14007KT 37/12 A2988 RMK A01 T03680122  RH  023%=      5-min Rain = 0
KCO2 050009Z 13007KT 37/12 A2988 RMK A01 T03670121  RH  023%=      5-min Rain = 0
KCO2 050010Z 13008KT 37/12 A2988 RMK A01 T03670118  RH  022%=      5-min Rain = 0
KCO2 050011Z 13008KT 37/12 A2988 RMK A01 T03670119  RH  023%=      5-min Rain = 0
KCO2 050012Z 13005KT 37/12 A2988 RMK A01 T03670121  RH  023%=      5-min Rain = 0
KCO2 050013Z 13008KT 37/13 A2988 RMK A01 T03670125  RH  023%=      5-min Rain = 0
KCO2 050014Z 13008KT 37/13 A2988 RMK A01 T03670125  RH  023%=      5-min Rain = 0
KCO2 050015Z 14008KT 37/13 A2989 RMK A01 T03670125  RH  024%=      5-min Rain = 0
KCO2 050016Z 13009KT 37/12 A2989 RMK A01 T03650124  RH  024%=      5-min Rain = 0
KCO2 050017Z 14008KT 36/12 A2989 RMK A01 T03640124  RH  024%=      5-min Rain = 0
KCO2 050018Z 14006KT 36/12 A2989 RMK A01 T03630123  RH  024%=      5-min Rain = 0
KCO2 050019Z 14008KT 36/13 A2989 RMK A01 T03630125  RH  024%=      5-min Rain = 0
KCO2 050020Z 13008KT 36/13 A2989 RMK A01 T03630125  RH  024%=      5-min Rain = 0
KCO2 050021Z 13007KT 36/13 A2989 RMK A01 T03620125  RH  024%=      5-min Rain = 0
KCO2 050022Z 14007KT 36/13 A2989 RMK A01 T03620127  RH  024%=      5-min Rain = 0
KCO2 050023Z 13008KT 36/13 A2989 RMK A01 T03620129  RH  025%=      5-min Rain = 0
KCO2 050024Z 14007KT 36/13 A2989 RMK A01 T03620130  RH  025%=      5-min Rain = 0
KCO2 050025Z 14007KT 36/13 A2989 RMK A01 T03610132  RH  025%=      5-min Rain = 0
KCO2 050026Z 15009KT 36/13 A2989 RMK A01 T03610133  RH  025%=      5-min Rain = 0
KCO2 050027Z 15008KT 36/13 A2989 RMK A01 T03610132  RH  025%=      5-min Rain = 0
KCO2 050028Z 15009KT 36/13 A2989 RMK A01 T03610132  RH  025%=      5-min Rain = 0
KCO2 050029Z 15009KT 36/13 A2989 RMK A01 T03600130  RH  025%=      5-min Rain = 0
KCO2 050030Z 15008KT 36/13 A2989 RMK A01 T03600129  RH  025%=      5-min Rain = 0
KCO2 050031Z 15007KT 36/13 A2989 RMK A01 T03610131  RH  025%=      5-min Rain = 0
KCO2 050032Z 14009KT 36/13 A2989 RMK A01 T03620132  RH  025%=      5-min Rain = 0
KCO2 050033Z 15008KT 36/13 A2989 RMK A01 T03630131  RH  025%=      5-min Rain = 0
KCO2 050034Z 15007KT 36/13 A2989 RMK A01 T03630133  RH  025%=      5-min Rain = 0
KCO2 050035Z 15008KT 36/13 A2989 RMK A01 T03630132  RH  025%=      5-min Rain = 0
KCO2 050036Z 15009KT 36/13 A2989 RMK A01 T03630132  RH  025%=      5-min Rain = 0
KCO2 050037Z 15007KT 36/13 A2989 RMK A01 T03630133  RH  025%=      5-min Rain = 0
KCO2 050038Z 14007KT 36/14 A2989 RMK A01 T03640136  RH  026%=      5-min Rain = 0
KCO2 050039Z 15007KT 36/13 A2989 RMK A01 T03630133  RH  025%=      5-min Rain = 0
KCO2 050040Z 15006KT 36/13 A2989 RMK A01 T03640133  RH  025%=      5-min Rain = 0
KCO2 050041Z 14007KT 36/13 A2989 RMK A01 T03640134  RH  025%=      5-min Rain = 0
KCO2 050042Z 15006KT 36/14 A2989 RMK A01 T03640136  RH  026%=      5-min Rain = 0
KCO2 050043Z 15007KT 36/14 A2989 RMK A01 T03640135  RH  025%=      5-min Rain = 0
KCO2 050044Z 15007KT 37/14 A2989 RMK A01 T03650135  RH  025%=      5-min Rain = 0
KCO2 050045Z 15007KT 37/13 A2989 RMK A01 T03650132  RH  025%=      5-min Rain = 0
KCO2 050046Z 15006KT 37/13 A2989 RMK A01 T03650133  RH  025%=      5-min Rain = 0
KCO2 050047Z 16006KT 36/13 A2989 RMK A01 T03640133  RH  025%=      5-min Rain = 0
KCO2 050048Z 16007KT 36/13 A2989 RMK A01 T03630134  RH  025%=      5-min Rain = 0
KCO2 050049Z 15008KT 36/13 A2989 RMK A01 T03630134  RH  025%=      5-min Rain = 0
KCO2 050050Z 15007KT 36/14 A2989 RMK A01 T03620135  RH  026%=      5-min Rain = 0
KCO2 050051Z 15007KT 36/14 A2989 RMK A01 T03620135  RH  026%=      5-min Rain = 0
KCO2 050052Z 14007KT 36/14 A2989 RMK A01 T03610136  RH  026%=      5-min Rain = 0
KCO2 050053Z 15008KT 36/14 A2989 RMK A01 T03600135  RH  026%=      5-min Rain = 0
KCO2 050054Z 15008KT 36/13 A2989 RMK A01 T03590134  RH  026%=      5-min Rain = 0
KCO2 050055Z 15008KT 36/13 A2989 RMK A01 T03590134  RH  026%=      5-min Rain = 0
KCO2 050056Z 15005KT 36/14 A2989 RMK A01 T03580135  RH  026%=      5-min Rain = 0
KCO2 050057Z 15005KT 36/14 A2989 RMK A01 T03580137  RH  027%=      5-min Rain = 0
KCO2 050058Z 16006KT 36/14 A2989 RMK A01 T03570138  RH  027%=      5-min Rain = 0
KCO2 050059Z 15005KT 36/14 A2989 RMK A01 T03570138  RH  027%=      5-min Rain = 0
KCO2 050100Z 15006KT 36/14 A2989 RMK A01 T03570137  RH  027%=      5-min Rain = 0
KCO2 050101Z 15007KT 36/14 A2989 RMK A01 T03570139  RH  027%=      5-min Rain = 0
KCO2 050102Z 15007KT 36/14 A2989 RMK A01 T03570140  RH  027%=      5-min Rain = 0
KCO2 050103Z 15008KT 36/14 A2989 RMK A01 T03570139  RH  027%=      5-min Rain = 0
KCO2 050104Z 16008KT 36/14 A2989 RMK A01 T03560139  RH  027%=      5-min Rain = 0
KCO2 050105Z 16008KT 36/14 A2989 RMK A01 T03560137  RH  027%=      5-min Rain = 0
KCO2 050106Z 16007KT 36/14 A299 RMK A01 T03570137  RH  027%=      5-min Rain = 0
KCO2 050107Z 16007KT 36/14 A299 RMK A01 T03570138  RH  027%=      5-min Rain = 0
KCO2 050108Z 16008KT 36/14 A299 RMK A01 T03560138  RH  027%=      5-min Rain = 0
KCO2 050109Z 16008KT 36/14 A299 RMK A01 T03560137  RH  027%=      5-min Rain = 0
KCO2 050110Z 15008KT 36/14 A299 RMK A01 T03560138  RH  027%=      5-min Rain = 0
KCO2 050111Z 16008KT 36/14 A299 RMK A01 T03550137  RH  027%=      5-min Rain = 0
KCO2 050112Z 15007KT 36/14 A299 RMK A01 T03550138  RH  027%=      5-min Rain = 0
KCO2 050113Z 15006KT 36/14 A299 RMK A01 T03550137  RH  027%=      5-min Rain = 0
KCO2 050114Z 15006KT 35/14 A299 RMK A01 T03540139  RH  027%=      5-min Rain = 0
KCO2 050115Z 15006KT 35/14 A299 RMK A01 T03540139  RH  028%=      5-min Rain = 0
KCO2 050116Z 14006KT 35/14 A299 RMK A01 T03530139  RH  028%=      5-min Rain = 0
KCO2 050117Z 15007KT 35/14 A299 RMK A01 T03530139  RH  028%=      5-min Rain = 0
KCO2 050118Z 15006KT 35/14 A299 RMK A01 T03520139  RH  028%=      5-min Rain = 0
KCO2 050119Z 15007KT 35/14 A299 RMK A01 T03520139  RH  028%=      5-min Rain = 0
KCO2 050120Z 15008KT 35/14 A299 RMK A01 T03520138  RH  028%=      5-min Rain = 0
KCO2 050121Z 15006KT 35/14 A299 RMK A01 T03510137  RH  028%=      5-min Rain = 0
KCO2 050122Z 14006KT 35/14 A299 RMK A01 T03510138  RH  028%=      5-min Rain = 0
KCO2 050123Z 14006KT 35/14 A299 RMK A01 T03500139  RH  028%=      5-min Rain = 0
KCO2 050124Z 14006KT 35/14 A299 RMK A01 T03500140  RH  028%=      5-min Rain = 0
KCO2 050125Z 14005KT 35/14 A299 RMK A01 T03490140  RH  029%=      5-min Rain = 0
KCO2 050126Z 15007KT 35/14 A299 RMK A01 T03480140  RH  029%=      5-min Rain = 0
KCO2 050127Z 15005KT 35/14 A299 RMK A01 T03470139  RH  029%=      5-min Rain = 0
KCO2 050128Z 15005KT 35/14 A299 RMK A01 T03470140  RH  029%=      5-min Rain = 0
KCO2 050129Z 15005KT 35/14 A299 RMK A01 T03460140  RH  029%=      5-min Rain = 0
KCO2 050130Z 14006KT 35/14 A299 RMK A01 T03450140  RH  029%=      5-min Rain = 0
KCO2 050131Z 15006KT 35/14 A299 RMK A01 T03450140  RH  029%=      5-min Rain = 0
KCO2 050132Z 15006KT 34/14 A299 RMK A01 T03440140  RH  029%=      5-min Rain = 0
KCO2 050133Z 15006KT 34/14 A299 RMK A01 T03440141  RH  030%=      5-min Rain = 0
KCO2 050134Z 15007KT 34/14 A2991 RMK A01 T03430140  RH  029%=      5-min Rain = 0
KCO2 050135Z 15006KT 34/14 A2991 RMK A01 T03430139  RH  029%=      5-min Rain = 0
KCO2 050136Z 15007KT 34/14 A2991 RMK A01 T03430140  RH  029%=      5-min Rain = 0
KCO2 050137Z 15007KT 34/14 A2991 RMK A01 T03430139  RH  029%=      5-min Rain = 0
KCO2 050138Z 16007KT 34/14 A2991 RMK A01 T03430140  RH  029%=      5-min Rain = 0
KCO2 050139Z 16007KT 34/14 A2991 RMK A01 T03430140  RH  030%=      5-min Rain = 0
KCO2 050140Z 16006KT 34/14 A2991 RMK A01 T03430140  RH  030%=      5-min Rain = 0
KCO2 050141Z 16006KT 34/14 A2991 RMK A01 T03420140  RH  030%=      5-min Rain = 0
KCO2 050142Z 16006KT 34/14 A2991 RMK A01 T03420140  RH  030%=      5-min Rain = 0
KCO2 050143Z 16006KT 34/14 A2991 RMK A01 T03420139  RH  029%=      5-min Rain = 0
KCO2 050144Z 15006KT 34/14 A2991 RMK A01 T03420138  RH  029%=      5-min Rain = 0
KCO2 050145Z 16006KT 34/14 A2991 RMK A01 T03420138  RH  029%=      5-min Rain = 0
KCO2 050146Z 15006KT 34/14 A2991 RMK A01 T03420138  RH  029%=      5-min Rain = 0
KCO2 050147Z 15006KT 34/14 A2991 RMK A01 T03410138  RH  029%=      5-min Rain = 0
KCO2 050148Z 16005KT 34/14 A2991 RMK A01 T03410138  RH  030%=      5-min Rain = 0
KCO2 050149Z 15006KT 34/14 A2991 RMK A01 T03400139  RH  030%=      5-min Rain = 0
KCO2 050150Z 15006KT 34/14 A2991 RMK A01 T03390139  RH  030%=      5-min Rain = 0
KCO2 050151Z 15006KT 34/14 A2991 RMK A01 T03380139  RH  030%=      5-min Rain = 0
KCO2 050152Z 16005KT 34/14 A2991 RMK A01 T03370139  RH  030%=      5-min Rain = 0
KCO2 050153Z 15005KT 34/14 A2991 RMK A01 T03360139  RH  031%=      5-min Rain = 0
KCO2 050154Z 15005KT 34/14 A2991 RMK A01 T03350139  RH  031%=      5-min Rain = 0
KCO2 050155Z 15006KT 33/14 A2991 RMK A01 T03340139  RH  031%=      5-min Rain = 0
KCO2 050156Z 15005KT 33/14 A2991 RMK A01 T03340139  RH  031%=      5-min Rain = 0
KCO2 050157Z 15006KT 33/14 A2991 RMK A01 T03330139  RH  031%=      5-min Rain = 0
KCO2 050158Z 15006KT 33/14 A2991 RMK A01 T03320139  RH  031%=      5-min Rain = 0
KCO2 050159Z 15006KT 33/14 A2991 RMK A01 T03320140  RH  031%=      5-min Rain = 0
KCO2 050200Z 15006KT 33/14 A2991 RMK A01 T03310139  RH  031%=      5-min Rain = 0
KCO2 050201Z 15006KT 33/14 A2991 RMK A01 T03310140  RH  031%=      5-min Rain = 0
KCO2 050202Z 15006KT 33/14 A2991 RMK A01 T03310140  RH  032%=      5-min Rain = 0
KCO2 050203Z 15006KT 33/14 A2991 RMK A01 T03300140  RH  032%=      5-min Rain = 0
KCO2 050204Z 15006KT 33/14 A2992 RMK A01 T03300140  RH  032%=      5-min Rain = 0
KCO2 050205Z 15006KT 33/14 A2992 RMK A01 T03300140  RH  032%=      5-min Rain = 0
KCO2 050206Z 15006KT 33/14 A2992 RMK A01 T03290141  RH  032%=      5-min Rain = 0
KCO2 050207Z 15006KT 33/14 A2992 RMK A01 T03290141  RH  032%=      5-min Rain = 0
KCO2 050208Z 15006KT 33/14 A2992 RMK A01 T03290140  RH  032%=      5-min Rain = 0
KCO2 050209Z 15006KT 33/14 A2992 RMK A01 T03290141  RH  032%=      5-min Rain = 0
KCO2 050210Z 15006KT 33/14 A2992 RMK A01 T03280141  RH  032%=      5-min Rain = 0
KCO2 050211Z 15006KT 33/14 A2992 RMK A01 T03280141  RH  032%=      5-min Rain = 0
KCO2 050212Z 15006KT 33/14 A2992 RMK A01 T03280141  RH  032%=      5-min Rain = 0
KCO2 050213Z 15006KT 33/14 A2992 RMK A01 T03280141  RH  032%=      5-min Rain = 0
KCO2 050214Z 15006KT 33/14 A2992 RMK A01 T03280142  RH  032%=      5-min Rain = 0
KCO2 050215Z 15006KT 33/14 A2992 RMK A01 T03280143  RH  033%=      5-min Rain = 0
KCO2 050216Z 15006KT 33/14 A2992 RMK A01 T03270142  RH  033%=      5-min Rain = 0
KCO2 050217Z 15006KT 33/14 A2992 RMK A01 T03270142  RH  033%=      5-min Rain = 0
KCO2 050218Z 15006KT 33/14 A2992 RMK A01 T03270143  RH  033%=      5-min Rain = 0
KCO2 050219Z 15006KT 33/14 A2992 RMK A01 T03260143  RH  033%=      5-min Rain = 0
KCO2 050220Z 15005KT 33/14 A2992 RMK A01 T03260143  RH  033%=      5-min Rain = 0
KCO2 050221Z 15006KT 33/14 A2992 RMK A01 T03260143  RH  033%=      5-min Rain = 0
KCO2 050222Z 15006KT 33/14 A2992 RMK A01 T03260143  RH  033%=      5-min Rain = 0
KCO2 050223Z 15006KT 33/14 A2992 RMK A01 T03260144  RH  033%=      5-min Rain = 0
KCO2 050224Z 15006KT 33/14 A2992 RMK A01 T03260144  RH  033%=      5-min Rain = 0
KCO2 050225Z 15006KT 33/14 A2992 RMK A01 T03260144  RH  033%=      5-min Rain = 0
KCO2 050226Z 15006KT 33/14 A2992 RMK A01 T03260144  RH  033%=      5-min Rain = 0
KCO2 050227Z 15006KT 33/14 A2992 RMK A01 T03260144  RH  033%=      5-min Rain = 0
KCO2 050228Z 15006KT 33/15 A2993 RMK A01 T03260145  RH  033%=      5-min Rain = 0
KCO2 050229Z 14006KT 33/15 A2993 RMK A01 T03260145  RH  034%=      5-min Rain = 0
KCO2 050230Z 15006KT 33/15 A2993 RMK A01 T03260146  RH  034%=      5-min Rain = 0
KCO2 050231Z 15006KT 33/15 A2993 RMK A01 T03260146  RH  034%=      5-min Rain = 0
KCO2 050232Z 15006KT 33/15 A2993 RMK A01 T03260146  RH  034%=      5-min Rain = 0
KCO2 050233Z 14006KT 33/15 A2993 RMK A01 T03260147  RH  034%=      5-min Rain = 0
KCO2 050234Z 14006KT 33/15 A2993 RMK A01 T03260147  RH  034%=      5-min Rain = 0
KCO2 050235Z 14006KT 33/15 A2993 RMK A01 T03260148  RH  034%=      5-min Rain = 0
KCO2 050236Z 14006KT 33/15 A2993 RMK A01 T03250149  RH  034%=      5-min Rain = 0
KCO2 050237Z 14005KT 33/15 A2993 RMK A01 T03250149  RH  035%=      5-min Rain = 0
KCO2 050238Z 14005KT 32/15 A2993 RMK A01 T03240150  RH  035%=      5-min Rain = 0
KCO2 050239Z 14006KT 32/15 A2993 RMK A01 T03240150  RH  035%=      5-min Rain = 0
KCO2 050240Z 14006KT 32/15 A2993 RMK A01 T03230150  RH  035%=      5-min Rain = 0
KCO2 050241Z 14006KT 32/15 A2993 RMK A01 T03230150  RH  035%=      5-min Rain = 0
KCO2 050242Z 14006KT 32/15 A2993 RMK A01 T03230150  RH  035%=      5-min Rain = 0
KCO2 050243Z 15006KT 32/15 A2993 RMK A01 T03220149  RH  035%=      5-min Rain = 0
KCO2 050244Z 15006KT 32/15 A2993 RMK A01 T03220149  RH  035%=      5-min Rain = 0
KCO2 050245Z 14006KT 32/15 A2993 RMK A01 T03220148  RH  035%=      5-min Rain = 0
KCO2 050246Z 14006KT 32/15 A2993 RMK A01 T03210149  RH  035%=      5-min Rain = 0
KCO2 050247Z 15006KT 32/15 A2993 RMK A01 T03210148  RH  035%=      5-min Rain = 0
KCO2 050248Z 15006KT 32/15 A2993 RMK A01 T03210148  RH  035%=      5-min Rain = 0
KCO2 050249Z 15006KT 32/15 A2993 RMK A01 T03200147  RH  035%=      5-min Rain = 0
KCO2 050250Z 15005KT 32/15 A2993 RMK A01 T03200147  RH  035%=      5-min Rain = 0
KCO2 050251Z 15006KT 32/15 A2993 RMK A01 T03200147  RH  035%=      5-min Rain = 0
KCO2 050252Z 15006KT 32/15 A2993 RMK A01 T03200146  RH  035%=      5-min Rain = 0
KCO2 050253Z 15005KT 32/15 A2993 RMK A01 T03200145  RH  035%=      5-min Rain = 0
KCO2 050254Z 15005KT 32/15 A2993 RMK A01 T03200145  RH  035%=      5-min Rain = 0
KCO2 050255Z 15005KT 32/14 A2993 RMK A01 T03200144  RH  034%=      5-min Rain = 0
KCO2 050256Z 15005KT 32/14 A2993 RMK A01 T03200144  RH  034%=      5-min Rain = 0
KCO2 050257Z 15006KT 32/14 A2993 RMK A01 T03200144  RH  034%=      5-min Rain = 0
KCO2 050258Z 14006KT 32/14 A2993 RMK A01 T03200143  RH  034%=      5-min Rain = 0
KCO2 050259Z 14005KT 32/14 A2993 RMK A01 T03200143  RH  034%=      5-min Rain = 0
KCO2 050300Z 14005KT 32/14 A2993 RMK A01 T03200143  RH  034%=      5-min Rain = 0
KCO2 050301Z 14005KT 32/14 A2993 RMK A01 T03200143  RH  034%=      5-min Rain = 0
KCO2 050302Z 15005KT 32/14 A2993 RMK A01 T03190143  RH  034%=      5-min Rain = 0
KCO2 050303Z 14006KT 32/14 A2993 RMK A01 T03190141  RH  034%=      5-min Rain = 0
KCO2 050304Z 14005KT 32/14 A2993 RMK A01 T03190141  RH  034%=      5-min Rain = 0
KCO2 050305Z 14005KT 32/14 A2993 RMK A01 T03190142  RH  034%=      5-min Rain = 0
KCO2 050306Z 14005KT 32/14 A2993 RMK A01 T03190143  RH  034%=      5-min Rain = 0
KCO2 050307Z 13006KT 32/14 A2993 RMK A01 T03190143  RH  034%=      5-min Rain = 0
KCO2 050308Z 13006KT 32/14 A2993 RMK A01 T03170143  RH  035%=      5-min Rain = 0
KCO2 050309Z 12006KT 32/14 A2993 RMK A01 T03170143  RH  035%=      5-min Rain = 0
KCO2 050310Z 12006KT 32/15 A2993 RMK A01 T03160145  RH  035%=      5-min Rain = 0
KCO2 050311Z 11006KT 32/15 A2993 RMK A01 T03150147  RH  036%=      5-min Rain = 0
KCO2 050312Z 10005KT 31/15 A2993 RMK A01 T03130148  RH  037%=      5-min Rain = 0
KCO2 050313Z 09005KT 31/15 A2993 RMK A01 T03120150  RH  037%=      5-min Rain = 0
KCO2 050314Z 09005KT 31/15 A2993 RMK A01 T03110149  RH  038%=      5-min Rain = 0
KCO2 050315Z 09005KT 31/15 A2993 RMK A01 T03090149  RH  038%=      5-min Rain = 0
KCO2 050316Z 10005KT 31/15 A2993 RMK A01 T03090149  RH  038%=      5-min Rain = 0
KCO2 050317Z 11005KT 31/15 A2993 RMK A01 T03070150  RH  038%=      5-min Rain = 0
KCO2 050318Z 11005KT 31/15 A2993 RMK A01 T03060150  RH  039%=      5-min Rain = 0
KCO2 050319Z 12005KT 31/15 A2993 RMK A01 T03050150  RH  039%=      5-min Rain = 0
KCO2 050320Z 12005KT 30/15 A2993 RMK A01 T03040150  RH  039%=      5-min Rain = 0
KCO2 050321Z 12005KT 30/15 A2993 RMK A01 T03040150  RH  039%=      5-min Rain = 0
KCO2 050322Z 13005KT 30/15 A2993 RMK A01 T03030151  RH  040%=      5-min Rain = 0
KCO2 050323Z 13005KT 30/15 A2993 RMK A01 T03020150  RH  040%=      5-min Rain = 0
KCO2 050324Z 13006KT 30/15 A2993 RMK A01 T03020150  RH  040%=      5-min Rain = 0
KCO2 050325Z 13006KT 30/15 A2993 RMK A01 T03020149  RH  040%=      5-min Rain = 0
KCO2 050326Z 13006KT 30/15 A2993 RMK A01 T03020150  RH  040%=      5-min Rain = 0
KCO2 050327Z 13006KT 30/15 A2993 RMK A01 T03020151  RH  040%=      5-min Rain = 0
KCO2 050328Z 13006KT 30/15 A2993 RMK A01 T03020151  RH  040%=      5-min Rain = 0
KCO2 050329Z 13006KT 30/15 A2993 RMK A01 T03010150  RH  040%=      5-min Rain = 0
KCO2 050330Z 14006KT 30/15 A2993 RMK A01 T03010150  RH  040%=      5-min Rain = 0
KCO2 050331Z 14006KT 30/15 A2993 RMK A01 T03000150  RH  040%=      5-min Rain = 0
KCO2 050332Z 14006KT 30/15 A2992 RMK A01 T03000151  RH  040%=      5-min Rain = 0
KCO2 050333Z 14006KT 30/15 A2992 RMK A01 T02990151  RH  041%=      5-min Rain = 0
KCO2 050334Z 14007KT 30/15 A2992 RMK A01 T02980150  RH  040%=      5-min Rain = 0
KCO2 050335Z 14007KT 30/15 A2992 RMK A01 T02980148  RH  040%=      5-min Rain = 0
KCO2 050336Z 15007KT 30/15 A2992 RMK A01 T02980148  RH  040%=      5-min Rain = 0
KCO2 050337Z 14007KT 30/15 A2992 RMK A01 T02980147  RH  040%=      5-min Rain = 0
KCO2 050338Z 14006KT 30/15 A2993 RMK A01 T02980149  RH  040%=      5-min Rain = 0
KCO2 050339Z 14006KT 30/15 A2993 RMK A01 T02970150  RH  041%=      5-min Rain = 0
KCO2 050340Z 13007KT 30/15 A2993 RMK A01 T02960151  RH  041%=      5-min Rain = 0
KCO2 050341Z 13006KT 30/15 A2993 RMK A01 T02950151  RH  042%=      5-min Rain = 0
KCO2 050342Z 13006KT 29/15 A2993 RMK A01 T02940151  RH  042%=      5-min Rain = 0
KCO2 050343Z 13006KT 29/15 A2993 RMK A01 T02940151  RH  042%=      5-min Rain = 0
KCO2 050344Z 13006KT 29/15 A2993 RMK A01 T02930151  RH  042%=      5-min Rain = 0
KCO2 050345Z 13006KT 29/15 A2993 RMK A01 T02930151  RH  042%=      5-min Rain = 0
KCO2 050346Z 14005KT 29/15 A2993 RMK A01 T02930151  RH  042%=      5-min Rain = 0
KCO2 050347Z 14005KT 29/15 A2993 RMK A01 T02930150  RH  042%=      5-min Rain = 0
KCO2 050348Z 14004KT 29/15 A2993 RMK A01 T02930149  RH  042%=      5-min Rain = 0
KCO2 050349Z 15004KT 29/15 A2993 RMK A01 T02930149  RH  042%=      5-min Rain = 0
KCO2 050350Z 15004KT 29/15 A2993 RMK A01 T02930148  RH  041%=      5-min Rain = 0
KCO2 050351Z 15005KT 29/15 A2993 RMK A01 T02930148  RH  041%=      5-min Rain = 0
KCO2 050352Z 15005KT 29/15 A2993 RMK A01 T02930148  RH  041%=      5-min Rain = 0
KCO2 050353Z 15005KT 29/15 A2993 RMK A01 T02930147  RH  041%=      5-min Rain = 0
KCO2 050354Z 14006KT 29/15 A2993 RMK A01 T02920146  RH  041%=      5-min Rain = 0
KCO2 050355Z 14006KT 29/15 A2993 RMK A01 T02920146  RH  041%=      5-min Rain = 0
KCO2 050356Z 14006KT 29/15 A2993 RMK A01 T02910146  RH  041%=      5-min Rain = 0
KCO2 050357Z 14006KT 29/15 A2993 RMK A01 T02900146  RH  041%=      5-min Rain = 0
KCO2 050358Z 14006KT 29/15 A2993 RMK A01 T02890146  RH  042%=      5-min Rain = 0
KCO2 050359Z 13006KT 29/15 A2993 RMK A01 T02890146  RH  042%=      5-min Rain = 0
KCO2 050400Z 13006KT 29/15 A2993 RMK A01 T02880146  RH  042%=      5-min Rain = 0
KCO2 050401Z 13006KT 29/15 A2993 RMK A01 T02870147  RH  042%=      5-min Rain = 0
KCO2 050402Z 12006KT 29/15 A2993 RMK A01 T02870147  RH  042%=      5-min Rain = 0
KCO2 050403Z 12006KT 29/15 A2993 RMK A01 T02850148  RH  043%=      5-min Rain = 0
KCO2 050404Z 12006KT 28/15 A2993 RMK A01 T02840148  RH  044%=      5-min Rain = 0
KCO2 050405Z 12006KT 28/15 A2993 RMK A01 T02820148  RH  044%=      5-min Rain = 0
KCO2 050406Z 12006KT 28/15 A2993 RMK A01 T02820147  RH  044%=      5-min Rain = 0
KCO2 050407Z 12006KT 28/15 A2993 RMK A01 T02830147  RH  043%=      5-min Rain = 0
KCO2 050408Z 12006KT 28/15 A2993 RMK A01 T02830146  RH  043%=      5-min Rain = 0
KCO2 050409Z 12007KT 28/15 A2993 RMK A01 T02830146  RH  043%=      5-min Rain = 0
KCO2 050410Z 12006KT 28/15 A2993 RMK A01 T02820145  RH  043%=      5-min Rain = 0
KCO2 050411Z 11006KT 28/15 A2993 RMK A01 T02810145  RH  043%=      5-min Rain = 0
KCO2 050412Z 11006KT 28/15 A2993 RMK A01 T02800146  RH  044%=      5-min Rain = 0
KCO2 050413Z 11006KT 28/15 A2993 RMK A01 T02790145  RH  044%=      5-min Rain = 0
KCO2 050414Z 11007KT 28/15 A2993 RMK A01 T02780145  RH  044%=      5-min Rain = 0
KCO2 050415Z 10007KT 28/14 A2993 RMK A01 T02770144  RH  044%=      5-min Rain = 0
KCO2 050416Z 09007KT 28/14 A2993 RMK A01 T02780143  RH  044%=      5-min Rain = 0
KCO2 050417Z 09007KT 28/15 A2993 RMK A01 T02780145  RH  044%=      5-min Rain = 0
KCO2 050418Z 10007KT 28/15 A2993 RMK A01 T02780146  RH  045%=      5-min Rain = 0
KCO2 050419Z 11007KT 28/15 A2993 RMK A01 T02770146  RH  045%=      5-min Rain = 0
KCO2 050420Z 11007KT 28/15 A2993 RMK A01 T02760146  RH  045%=      5-min Rain = 0
KCO2 050421Z 11007KT 28/15 A2993 RMK A01 T02770145  RH  045%=      5-min Rain = 0
KCO2 050422Z 11007KT 28/14 A2993 RMK A01 T02770144  RH  044%=      5-min Rain = 0
KCO2 050423Z 10007KT 28/15 A2993 RMK A01 T02780145  RH  044%=      5-min Rain = 0
KCO2 050424Z 10007KT 28/14 A2993 RMK A01 T02770144  RH  044%=      5-min Rain = 0
KCO2 050425Z 11007KT 28/14 A2993 RMK A01 T02780144  RH  044%=      5-min Rain = 0
KCO2 050426Z 11007KT 28/14 A2993 RMK A01 T02780143  RH  044%=      5-min Rain = 0
KCO2 050427Z 11007KT 28/14 A2993 RMK A01 T02780142  RH  043%=      5-min Rain = 0
KCO2 050428Z 11007KT 28/14 A2993 RMK A01 T02780142  RH  043%=      5-min Rain = 0
KCO2 050429Z 11007KT 28/14 A2993 RMK A01 T02770142  RH  043%=      5-min Rain = 0
KCO2 050430Z 12007KT 28/14 A2993 RMK A01 T02770142  RH  044%=      5-min Rain = 0
KCO2 050431Z 12006KT 28/14 A2993 RMK A01 T02760141  RH  044%=      5-min Rain = 0
KCO2 050432Z 12006KT 28/14 A2993 RMK A01 T02760142  RH  044%=      5-min Rain = 0
KCO2 050433Z 12006KT 28/14 A2993 RMK A01 T02760142  RH  044%=      5-min Rain = 0
KCO2 050434Z 12006KT 28/14 A2993 RMK A01 T02750142  RH  044%=      5-min Rain = 0
KCO2 050435Z 12006KT 28/14 A2993 RMK A01 T02750141  RH  044%=      5-min Rain = 0
KCO2 050436Z 12006KT 28/14 A2993 RMK A01 T02750140  RH  044%=      5-min Rain = 0
KCO2 050437Z 12006KT 28/14 A2993 RMK A01 T02750140  RH  044%=      5-min Rain = 0
KCO2 050438Z 12006KT 27/14 A2993 RMK A01 T02740140  RH  044%=      5-min Rain = 0
KCO2 050439Z 12006KT 27/14 A2993 RMK A01 T02740140  RH  044%=      5-min Rain = 0
KCO2 050440Z 12006KT 27/14 A2993 RMK A01 T02730139  RH  044%=      5-min Rain = 0
KCO2 050441Z 13006KT 27/14 A2992 RMK A01 T02730140  RH  044%=      5-min Rain = 0
KCO2 050442Z 13006KT 27/14 A2992 RMK A01 T02730139  RH  044%=      5-min Rain = 0
KCO2 050443Z 13006KT 27/14 A2992 RMK A01 T02720139  RH  044%=      5-min Rain = 0
KCO2 050444Z 13006KT 27/14 A2992 RMK A01 T02720139  RH  044%=      5-min Rain = 0
KCO2 050445Z 13006KT 27/14 A2993 RMK A01 T02720139  RH  044%=      5-min Rain = 0
KCO2 050446Z 13006KT 27/14 A2993 RMK A01 T02720138  RH  044%=      5-min Rain = 0
KCO2 050447Z 13006KT 27/14 A2993 RMK A01 T02720137  RH  044%=      5-min Rain = 0
KCO2 050448Z 13006KT 27/14 A2993 RMK A01 T02720137  RH  044%=      5-min Rain = 0
KCO2 050449Z 13006KT 27/14 A2993 RMK A01 T02720137  RH  044%=      5-min Rain = 0
KCO2 050450Z 13005KT 27/14 A2993 RMK A01 T02720137  RH  044%=      5-min Rain = 0
KCO2 050451Z 13006KT 27/14 A2992 RMK A01 T02720137  RH  044%=      5-min Rain = 0
KCO2 050452Z 13005KT 27/14 A2992 RMK A01 T02720137  RH  043%=      5-min Rain = 0
KCO2 050453Z 13006KT 27/14 A2992 RMK A01 T02720137  RH  043%=      5-min Rain = 0
KCO2 050454Z 14006KT 27/14 A2992 RMK A01 T02730137  RH  043%=      5-min Rain = 0
KCO2 050455Z 14006KT 27/14 A2992 RMK A01 T02730136  RH  043%=      5-min Rain = 0
KCO2 050456Z 14006KT 27/14 A2992 RMK A01 T02740136  RH  043%=      5-min Rain = 0
KCO2 050457Z 14006KT 28/14 A2992 RMK A01 T02750137  RH  043%=      5-min Rain = 0
KCO2 050458Z 13006KT 28/14 A2992 RMK A01 T02750137  RH  043%=      5-min Rain = 0
KCO2 050459Z 13006KT 28/14 A2992 RMK A01 T02750137  RH  043%=      5-min Rain = 0

Page generated in 0.0717 seconds.